<?xml version="1.0" encoding="UTF-8" standalone="no" ?>
<gpx xmlns="http://www.topografix.com/GPX/1/1" xmlns:xsi="http://www.w3.org/2001/XMLSchema-instance" xsi:schemaLocation="http://www.topografix.com/GPX/1/1 http://www.topografix.com/GPX/1/1/gpx.xsd" version="1.1" creator="VisuGPX - https://www.visugpx.com">
  <metadata>
    <name>Saint Martin de Fugères - Cascade de Louade 16km</name>
    <desc><![CDATA[parcouru le 05 06 2022 - la montée a la cascade nécessite des chevaux aguerris et des cavaliers avertis . ]]></desc>
  </metadata>
  <trk>
    <name><![CDATA[2022-06-06 12:11:14]]></name>
    <extensions>
      <line xmlns="http://www.topografix.com/GPX/gpx_style/0/2">
        <color>0000FF</color>
        <width>4</width>
      </line>
    </extensions>
    <trkseg>
      <trkpt lat="44.89849" lon="3.92411">
        <ele>942.71</ele>
        <time>2022-06-05T12:12:33Z</time>
      </trkpt>
      <trkpt lat="44.8985" lon="3.92411">
        <ele>942.71</ele>
        <time>2022-06-05T12:12:40Z</time>
      </trkpt>
      <trkpt lat="44.89822" lon="3.92362">
        <ele>948</ele>
        <time>2022-06-05T14:01:55Z</time>
      </trkpt>
      <trkpt lat="44.89822" lon="3.92354">
        <ele>947.52</ele>
        <time>2022-06-05T14:02:22Z</time>
      </trkpt>
      <trkpt lat="44.89858" lon="3.92385">
        <ele>933.1</ele>
        <time>2022-06-06T07:01:44Z</time>
      </trkpt>
      <trkpt lat="44.8986" lon="3.9239">
        <ele>946.56</ele>
        <time>2022-06-06T07:02:07Z</time>
      </trkpt>
      <trkpt lat="44.89859" lon="3.92391">
        <ele>946.56</ele>
        <time>2022-06-06T07:02:22Z</time>
      </trkpt>
      <trkpt lat="44.89861" lon="3.92388">
        <ele>945.11</ele>
        <time>2022-06-06T07:02:39Z</time>
      </trkpt>
      <trkpt lat="44.89862" lon="3.92394">
        <ele>944.63</ele>
        <time>2022-06-06T07:02:57Z</time>
      </trkpt>
      <trkpt lat="44.89861" lon="3.92389">
        <ele>944.15</ele>
        <time>2022-06-06T07:03:02Z</time>
      </trkpt>
      <trkpt lat="44.89862" lon="3.9238">
        <ele>941.27</ele>
        <time>2022-06-06T07:03:17Z</time>
      </trkpt>
      <trkpt lat="44.89862" lon="3.92383">
        <ele>940.79</ele>
        <time>2022-06-06T07:03:19Z</time>
      </trkpt>
      <trkpt lat="44.89846" lon="3.92431">
        <ele>938.38</ele>
        <time>2022-06-06T07:03:50Z</time>
      </trkpt>
      <trkpt lat="44.89829" lon="3.92465">
        <ele>937.42</ele>
        <time>2022-06-06T07:04:10Z</time>
      </trkpt>
      <trkpt lat="44.89817" lon="3.92509">
        <ele>938.38</ele>
        <time>2022-06-06T07:04:28Z</time>
      </trkpt>
      <trkpt lat="44.89805" lon="3.92541">
        <ele>938.38</ele>
        <time>2022-06-06T07:04:46Z</time>
      </trkpt>
      <trkpt lat="44.89796" lon="3.92567">
        <ele>938.38</ele>
        <time>2022-06-06T07:05:03Z</time>
      </trkpt>
      <trkpt lat="44.89787" lon="3.92603">
        <ele>938.38</ele>
        <time>2022-06-06T07:05:22Z</time>
      </trkpt>
      <trkpt lat="44.89776" lon="3.92633">
        <ele>938.38</ele>
        <time>2022-06-06T07:05:40Z</time>
      </trkpt>
      <trkpt lat="44.89759" lon="3.92662">
        <ele>938.86</ele>
        <time>2022-06-06T07:05:57Z</time>
      </trkpt>
      <trkpt lat="44.89736" lon="3.92689">
        <ele>940.31</ele>
        <time>2022-06-06T07:06:18Z</time>
      </trkpt>
      <trkpt lat="44.89725" lon="3.92718">
        <ele>939.83</ele>
        <time>2022-06-06T07:06:37Z</time>
      </trkpt>
      <trkpt lat="44.89725" lon="3.9272">
        <ele>939.83</ele>
        <time>2022-06-06T07:06:38Z</time>
      </trkpt>
      <trkpt lat="44.89726" lon="3.92721">
        <ele>940.31</ele>
        <time>2022-06-06T07:06:39Z</time>
      </trkpt>
      <trkpt lat="44.89738" lon="3.92732">
        <ele>942.71</ele>
        <time>2022-06-06T07:06:54Z</time>
      </trkpt>
      <trkpt lat="44.89751" lon="3.92741">
        <ele>947.04</ele>
        <time>2022-06-06T07:07:12Z</time>
      </trkpt>
      <trkpt lat="44.8977" lon="3.9275">
        <ele>953.28</ele>
        <time>2022-06-06T07:07:29Z</time>
      </trkpt>
      <trkpt lat="44.89796" lon="3.92751">
        <ele>964.82</ele>
        <time>2022-06-06T07:07:47Z</time>
      </trkpt>
      <trkpt lat="44.89816" lon="3.92755">
        <ele>971.55</ele>
        <time>2022-06-06T07:08:03Z</time>
      </trkpt>
      <trkpt lat="44.89832" lon="3.92764">
        <ele>977.32</ele>
        <time>2022-06-06T07:08:18Z</time>
      </trkpt>
      <trkpt lat="44.89838" lon="3.92766">
        <ele>978.76</ele>
        <time>2022-06-06T07:08:22Z</time>
      </trkpt>
      <trkpt lat="44.89841" lon="3.92767">
        <ele>979.24</ele>
        <time>2022-06-06T07:08:23Z</time>
      </trkpt>
      <trkpt lat="44.89844" lon="3.92767">
        <ele>979.72</ele>
        <time>2022-06-06T07:08:24Z</time>
      </trkpt>
      <trkpt lat="44.89871" lon="3.92776">
        <ele>982.6</ele>
        <time>2022-06-06T07:08:39Z</time>
      </trkpt>
      <trkpt lat="44.89885" lon="3.92779">
        <ele>985.01</ele>
        <time>2022-06-06T07:08:49Z</time>
      </trkpt>
      <trkpt lat="44.89887" lon="3.92779">
        <ele>985.01</ele>
        <time>2022-06-06T07:08:50Z</time>
      </trkpt>
      <trkpt lat="44.89889" lon="3.92779">
        <ele>985.49</ele>
        <time>2022-06-06T07:08:51Z</time>
      </trkpt>
      <trkpt lat="44.89907" lon="3.92786">
        <ele>987.41</ele>
        <time>2022-06-06T07:09:04Z</time>
      </trkpt>
      <trkpt lat="44.89911" lon="3.92786">
        <ele>988.37</ele>
        <time>2022-06-06T07:09:07Z</time>
      </trkpt>
      <trkpt lat="44.89913" lon="3.92786">
        <ele>988.85</ele>
        <time>2022-06-06T07:09:08Z</time>
      </trkpt>
      <trkpt lat="44.89937" lon="3.92788">
        <ele>997.99</ele>
        <time>2022-06-06T07:09:27Z</time>
      </trkpt>
      <trkpt lat="44.89943" lon="3.92791">
        <ele>999.43</ele>
        <time>2022-06-06T07:09:31Z</time>
      </trkpt>
      <trkpt lat="44.89974" lon="3.92804">
        <ele>1005.68</ele>
        <time>2022-06-06T07:09:52Z</time>
      </trkpt>
      <trkpt lat="44.89976" lon="3.92806">
        <ele>1005.68</ele>
        <time>2022-06-06T07:09:53Z</time>
      </trkpt>
      <trkpt lat="44.89976" lon="3.92807">
        <ele>1006.16</ele>
        <time>2022-06-06T07:09:54Z</time>
      </trkpt>
      <trkpt lat="44.89977" lon="3.92809">
        <ele>1006.16</ele>
        <time>2022-06-06T07:09:55Z</time>
      </trkpt>
      <trkpt lat="44.89978" lon="3.92811">
        <ele>1006.16</ele>
        <time>2022-06-06T07:09:56Z</time>
      </trkpt>
      <trkpt lat="44.89979" lon="3.92813">
        <ele>1006.64</ele>
        <time>2022-06-06T07:09:57Z</time>
      </trkpt>
      <trkpt lat="44.90001" lon="3.92842">
        <ele>1004.72</ele>
        <time>2022-06-06T07:10:14Z</time>
      </trkpt>
      <trkpt lat="44.90023" lon="3.92865">
        <ele>1005.68</ele>
        <time>2022-06-06T07:10:28Z</time>
      </trkpt>
      <trkpt lat="44.90041" lon="3.92885">
        <ele>1008.08</ele>
        <time>2022-06-06T07:10:43Z</time>
      </trkpt>
      <trkpt lat="44.90063" lon="3.92909">
        <ele>1010.48</ele>
        <time>2022-06-06T07:11:03Z</time>
      </trkpt>
      <trkpt lat="44.90081" lon="3.92936">
        <ele>1011.44</ele>
        <time>2022-06-06T07:11:19Z</time>
      </trkpt>
      <trkpt lat="44.90099" lon="3.92957">
        <ele>1011.93</ele>
        <time>2022-06-06T07:11:35Z</time>
      </trkpt>
      <trkpt lat="44.90117" lon="3.92981">
        <ele>1010.96</ele>
        <time>2022-06-06T07:11:51Z</time>
      </trkpt>
      <trkpt lat="44.9014" lon="3.93007">
        <ele>1006.64</ele>
        <time>2022-06-06T07:12:11Z</time>
      </trkpt>
      <trkpt lat="44.90157" lon="3.93021">
        <ele>1006.16</ele>
        <time>2022-06-06T07:12:29Z</time>
      </trkpt>
      <trkpt lat="44.90173" lon="3.93031">
        <ele>1006.64</ele>
        <time>2022-06-06T07:12:41Z</time>
      </trkpt>
      <trkpt lat="44.90195" lon="3.93059">
        <ele>1008.08</ele>
        <time>2022-06-06T07:12:57Z</time>
      </trkpt>
      <trkpt lat="44.90216" lon="3.93082">
        <ele>1010</ele>
        <time>2022-06-06T07:13:14Z</time>
      </trkpt>
      <trkpt lat="44.90236" lon="3.93105">
        <ele>1009.52</ele>
        <time>2022-06-06T07:13:31Z</time>
      </trkpt>
      <trkpt lat="44.90259" lon="3.9313">
        <ele>1010.48</ele>
        <time>2022-06-06T07:13:49Z</time>
      </trkpt>
      <trkpt lat="44.90276" lon="3.93147">
        <ele>1009.04</ele>
        <time>2022-06-06T07:14:04Z</time>
      </trkpt>
      <trkpt lat="44.90295" lon="3.93167">
        <ele>1005.68</ele>
        <time>2022-06-06T07:14:19Z</time>
      </trkpt>
      <trkpt lat="44.90311" lon="3.93178">
        <ele>1004.23</ele>
        <time>2022-06-06T07:14:34Z</time>
      </trkpt>
      <trkpt lat="44.90332" lon="3.93195">
        <ele>1007.12</ele>
        <time>2022-06-06T07:14:51Z</time>
      </trkpt>
      <trkpt lat="44.90338" lon="3.93205">
        <ele>1007.12</ele>
        <time>2022-06-06T07:14:57Z</time>
      </trkpt>
      <trkpt lat="44.90352" lon="3.93232">
        <ele>1007.12</ele>
        <time>2022-06-06T07:15:15Z</time>
      </trkpt>
      <trkpt lat="44.90363" lon="3.93248">
        <ele>1009.52</ele>
        <time>2022-06-06T07:15:30Z</time>
      </trkpt>
      <trkpt lat="44.9038" lon="3.93265">
        <ele>1013.85</ele>
        <time>2022-06-06T07:15:47Z</time>
      </trkpt>
      <trkpt lat="44.90388" lon="3.93273">
        <ele>1015.29</ele>
        <time>2022-06-06T07:15:54Z</time>
      </trkpt>
      <trkpt lat="44.90419" lon="3.93286">
        <ele>1019.62</ele>
        <time>2022-06-06T07:16:12Z</time>
      </trkpt>
      <trkpt lat="44.90438" lon="3.933">
        <ele>1019.13</ele>
        <time>2022-06-06T07:16:28Z</time>
      </trkpt>
      <trkpt lat="44.90456" lon="3.9332">
        <ele>1016.73</ele>
        <time>2022-06-06T07:16:43Z</time>
      </trkpt>
      <trkpt lat="44.90469" lon="3.93358">
        <ele>1010</ele>
        <time>2022-06-06T07:17:01Z</time>
      </trkpt>
      <trkpt lat="44.90486" lon="3.93404">
        <ele>1011.44</ele>
        <time>2022-06-06T07:17:16Z</time>
      </trkpt>
      <trkpt lat="44.90505" lon="3.93435">
        <ele>1006.64</ele>
        <time>2022-06-06T07:17:33Z</time>
      </trkpt>
      <trkpt lat="44.90529" lon="3.93452">
        <ele>1005.68</ele>
        <time>2022-06-06T07:17:52Z</time>
      </trkpt>
      <trkpt lat="44.90549" lon="3.93457">
        <ele>1006.64</ele>
        <time>2022-06-06T07:18:08Z</time>
      </trkpt>
      <trkpt lat="44.90552" lon="3.93459">
        <ele>1007.12</ele>
        <time>2022-06-06T07:18:10Z</time>
      </trkpt>
      <trkpt lat="44.90553" lon="3.93468">
        <ele>1008.08</ele>
        <time>2022-06-06T07:18:15Z</time>
      </trkpt>
      <trkpt lat="44.90553" lon="3.93469">
        <ele>1008.08</ele>
        <time>2022-06-06T07:18:16Z</time>
      </trkpt>
      <trkpt lat="44.90553" lon="3.93471">
        <ele>1008.56</ele>
        <time>2022-06-06T07:18:17Z</time>
      </trkpt>
      <trkpt lat="44.90553" lon="3.93473">
        <ele>1008.56</ele>
        <time>2022-06-06T07:18:18Z</time>
      </trkpt>
      <trkpt lat="44.90552" lon="3.93475">
        <ele>1009.04</ele>
        <time>2022-06-06T07:18:19Z</time>
      </trkpt>
      <trkpt lat="44.90552" lon="3.93477">
        <ele>1009.04</ele>
        <time>2022-06-06T07:18:20Z</time>
      </trkpt>
      <trkpt lat="44.90552" lon="3.93479">
        <ele>1009.52</ele>
        <time>2022-06-06T07:18:21Z</time>
      </trkpt>
      <trkpt lat="44.90552" lon="3.93481">
        <ele>1009.52</ele>
        <time>2022-06-06T07:18:22Z</time>
      </trkpt>
      <trkpt lat="44.90561" lon="3.93513">
        <ele>1010.48</ele>
        <time>2022-06-06T07:18:40Z</time>
      </trkpt>
      <trkpt lat="44.90567" lon="3.93521">
        <ele>1011.44</ele>
        <time>2022-06-06T07:18:47Z</time>
      </trkpt>
      <trkpt lat="44.90569" lon="3.93524">
        <ele>1011.44</ele>
        <time>2022-06-06T07:18:49Z</time>
      </trkpt>
      <trkpt lat="44.90578" lon="3.93554">
        <ele>1014.33</ele>
        <time>2022-06-06T07:19:06Z</time>
      </trkpt>
      <trkpt lat="44.9059" lon="3.93572">
        <ele>1017.21</ele>
        <time>2022-06-06T07:19:25Z</time>
      </trkpt>
      <trkpt lat="44.90613" lon="3.93572">
        <ele>1019.13</ele>
        <time>2022-06-06T07:19:42Z</time>
      </trkpt>
      <trkpt lat="44.90638" lon="3.93578">
        <ele>1021.06</ele>
        <time>2022-06-06T07:19:58Z</time>
      </trkpt>
      <trkpt lat="44.90665" lon="3.93585">
        <ele>1020.58</ele>
        <time>2022-06-06T07:20:15Z</time>
      </trkpt>
      <trkpt lat="44.90683" lon="3.93585">
        <ele>1019.13</ele>
        <time>2022-06-06T07:20:29Z</time>
      </trkpt>
      <trkpt lat="44.907" lon="3.93586">
        <ele>1018.65</ele>
        <time>2022-06-06T07:20:48Z</time>
      </trkpt>
      <trkpt lat="44.90724" lon="3.93576">
        <ele>1013.37</ele>
        <time>2022-06-06T07:21:03Z</time>
      </trkpt>
      <trkpt lat="44.90742" lon="3.93572">
        <ele>1010.48</ele>
        <time>2022-06-06T07:21:17Z</time>
      </trkpt>
      <trkpt lat="44.90763" lon="3.93565">
        <ele>1012.89</ele>
        <time>2022-06-06T07:21:33Z</time>
      </trkpt>
      <trkpt lat="44.90785" lon="3.93563">
        <ele>1015.29</ele>
        <time>2022-06-06T07:21:51Z</time>
      </trkpt>
      <trkpt lat="44.90795" lon="3.9356">
        <ele>1013.85</ele>
        <time>2022-06-06T07:21:59Z</time>
      </trkpt>
      <trkpt lat="44.90826" lon="3.9357">
        <ele>1014.81</ele>
        <time>2022-06-06T07:22:14Z</time>
      </trkpt>
      <trkpt lat="44.90847" lon="3.93581">
        <ele>1016.25</ele>
        <time>2022-06-06T07:22:30Z</time>
      </trkpt>
      <trkpt lat="44.90869" lon="3.93592">
        <ele>1014.81</ele>
        <time>2022-06-06T07:22:47Z</time>
      </trkpt>
      <trkpt lat="44.90886" lon="3.93596">
        <ele>1005.2</ele>
        <time>2022-06-06T07:23:08Z</time>
      </trkpt>
      <trkpt lat="44.90906" lon="3.93593">
        <ele>1000.87</ele>
        <time>2022-06-06T07:23:27Z</time>
      </trkpt>
      <trkpt lat="44.90922" lon="3.93598">
        <ele>1000.39</ele>
        <time>2022-06-06T07:23:44Z</time>
      </trkpt>
      <trkpt lat="44.90939" lon="3.93603">
        <ele>1000.87</ele>
        <time>2022-06-06T07:24:01Z</time>
      </trkpt>
      <trkpt lat="44.90959" lon="3.93605">
        <ele>1004.72</ele>
        <time>2022-06-06T07:24:17Z</time>
      </trkpt>
      <trkpt lat="44.9098" lon="3.9362">
        <ele>1005.2</ele>
        <time>2022-06-06T07:24:33Z</time>
      </trkpt>
      <trkpt lat="44.91007" lon="3.93637">
        <ele>1006.16</ele>
        <time>2022-06-06T07:24:46Z</time>
      </trkpt>
      <trkpt lat="44.91033" lon="3.93654">
        <ele>1009.52</ele>
        <time>2022-06-06T07:25:01Z</time>
      </trkpt>
      <trkpt lat="44.91058" lon="3.9366">
        <ele>1011.44</ele>
        <time>2022-06-06T07:25:18Z</time>
      </trkpt>
      <trkpt lat="44.91086" lon="3.93675">
        <ele>1004.23</ele>
        <time>2022-06-06T07:25:35Z</time>
      </trkpt>
      <trkpt lat="44.91107" lon="3.93691">
        <ele>993.18</ele>
        <time>2022-06-06T07:25:53Z</time>
      </trkpt>
      <trkpt lat="44.91127" lon="3.93704">
        <ele>992.7</ele>
        <time>2022-06-06T07:26:09Z</time>
      </trkpt>
      <trkpt lat="44.91147" lon="3.93725">
        <ele>989.33</ele>
        <time>2022-06-06T07:26:22Z</time>
      </trkpt>
      <trkpt lat="44.91162" lon="3.93742">
        <ele>986.93</ele>
        <time>2022-06-06T07:26:37Z</time>
      </trkpt>
      <trkpt lat="44.91184" lon="3.9375">
        <ele>984.05</ele>
        <time>2022-06-06T07:26:54Z</time>
      </trkpt>
      <trkpt lat="44.91204" lon="3.93757">
        <ele>976.36</ele>
        <time>2022-06-06T07:27:11Z</time>
      </trkpt>
      <trkpt lat="44.91233" lon="3.9376">
        <ele>972.51</ele>
        <time>2022-06-06T07:27:27Z</time>
      </trkpt>
      <trkpt lat="44.91263" lon="3.93762">
        <ele>968.18</ele>
        <time>2022-06-06T07:27:48Z</time>
      </trkpt>
      <trkpt lat="44.91288" lon="3.93764">
        <ele>967.7</ele>
        <time>2022-06-06T07:28:09Z</time>
      </trkpt>
      <trkpt lat="44.91311" lon="3.93775">
        <ele>966.74</ele>
        <time>2022-06-06T07:28:26Z</time>
      </trkpt>
      <trkpt lat="44.91325" lon="3.93782">
        <ele>965.78</ele>
        <time>2022-06-06T07:28:38Z</time>
      </trkpt>
      <trkpt lat="44.91353" lon="3.93791">
        <ele>963.86</ele>
        <time>2022-06-06T07:28:59Z</time>
      </trkpt>
      <trkpt lat="44.91375" lon="3.93798">
        <ele>964.82</ele>
        <time>2022-06-06T07:29:18Z</time>
      </trkpt>
      <trkpt lat="44.91399" lon="3.93805">
        <ele>962.42</ele>
        <time>2022-06-06T07:29:35Z</time>
      </trkpt>
      <trkpt lat="44.91421" lon="3.93819">
        <ele>960.01</ele>
        <time>2022-06-06T07:29:49Z</time>
      </trkpt>
      <trkpt lat="44.9145" lon="3.93837">
        <ele>960.01</ele>
        <time>2022-06-06T07:30:05Z</time>
      </trkpt>
      <trkpt lat="44.91468" lon="3.93849">
        <ele>959.05</ele>
        <time>2022-06-06T07:30:18Z</time>
      </trkpt>
      <trkpt lat="44.91502" lon="3.93859">
        <ele>957.61</ele>
        <time>2022-06-06T07:30:34Z</time>
      </trkpt>
      <trkpt lat="44.91548" lon="3.93873">
        <ele>956.17</ele>
        <time>2022-06-06T07:30:53Z</time>
      </trkpt>
      <trkpt lat="44.9159" lon="3.93878">
        <ele>954.73</ele>
        <time>2022-06-06T07:31:09Z</time>
      </trkpt>
      <trkpt lat="44.91631" lon="3.93869">
        <ele>952.8</ele>
        <time>2022-06-06T07:31:24Z</time>
      </trkpt>
      <trkpt lat="44.91673" lon="3.93866">
        <ele>950.88</ele>
        <time>2022-06-06T07:31:39Z</time>
      </trkpt>
      <trkpt lat="44.91707" lon="3.93854">
        <ele>951.36</ele>
        <time>2022-06-06T07:31:54Z</time>
      </trkpt>
      <trkpt lat="44.91731" lon="3.93857">
        <ele>950.4</ele>
        <time>2022-06-06T07:32:10Z</time>
      </trkpt>
      <trkpt lat="44.91734" lon="3.93861">
        <ele>950.4</ele>
        <time>2022-06-06T07:32:13Z</time>
      </trkpt>
      <trkpt lat="44.91734" lon="3.93863">
        <ele>950.4</ele>
        <time>2022-06-06T07:32:14Z</time>
      </trkpt>
      <trkpt lat="44.91736" lon="3.93865">
        <ele>950.4</ele>
        <time>2022-06-06T07:32:15Z</time>
      </trkpt>
      <trkpt lat="44.91755" lon="3.93898">
        <ele>948.96</ele>
        <time>2022-06-06T07:32:32Z</time>
      </trkpt>
      <trkpt lat="44.91771" lon="3.93925">
        <ele>947.52</ele>
        <time>2022-06-06T07:32:46Z</time>
      </trkpt>
      <trkpt lat="44.91788" lon="3.93953">
        <ele>947.04</ele>
        <time>2022-06-06T07:33:04Z</time>
      </trkpt>
      <trkpt lat="44.91816" lon="3.93959">
        <ele>946.56</ele>
        <time>2022-06-06T07:33:19Z</time>
      </trkpt>
      <trkpt lat="44.91832" lon="3.93961">
        <ele>946.56</ele>
        <time>2022-06-06T07:33:31Z</time>
      </trkpt>
      <trkpt lat="44.91851" lon="3.93976">
        <ele>947.52</ele>
        <time>2022-06-06T07:33:47Z</time>
      </trkpt>
      <trkpt lat="44.91854" lon="3.93984">
        <ele>948.48</ele>
        <time>2022-06-06T07:33:52Z</time>
      </trkpt>
      <trkpt lat="44.91854" lon="3.93986">
        <ele>948.48</ele>
        <time>2022-06-06T07:33:53Z</time>
      </trkpt>
      <trkpt lat="44.91854" lon="3.93988">
        <ele>948.48</ele>
        <time>2022-06-06T07:33:54Z</time>
      </trkpt>
      <trkpt lat="44.91854" lon="3.9399">
        <ele>948.48</ele>
        <time>2022-06-06T07:33:55Z</time>
      </trkpt>
      <trkpt lat="44.91855" lon="3.93992">
        <ele>948.48</ele>
        <time>2022-06-06T07:33:56Z</time>
      </trkpt>
      <trkpt lat="44.91855" lon="3.93994">
        <ele>948.48</ele>
        <time>2022-06-06T07:33:57Z</time>
      </trkpt>
      <trkpt lat="44.91855" lon="3.93996">
        <ele>948.96</ele>
        <time>2022-06-06T07:33:58Z</time>
      </trkpt>
      <trkpt lat="44.91854" lon="3.93998">
        <ele>948.96</ele>
        <time>2022-06-06T07:33:59Z</time>
      </trkpt>
      <trkpt lat="44.91854" lon="3.94">
        <ele>948.96</ele>
        <time>2022-06-06T07:34:00Z</time>
      </trkpt>
      <trkpt lat="44.91849" lon="3.94031">
        <ele>950.4</ele>
        <time>2022-06-06T07:34:17Z</time>
      </trkpt>
      <trkpt lat="44.91837" lon="3.94053">
        <ele>949.44</ele>
        <time>2022-06-06T07:34:32Z</time>
      </trkpt>
      <trkpt lat="44.91829" lon="3.94073">
        <ele>950.4</ele>
        <time>2022-06-06T07:34:48Z</time>
      </trkpt>
      <trkpt lat="44.91829" lon="3.94088">
        <ele>949.92</ele>
        <time>2022-06-06T07:35:04Z</time>
      </trkpt>
      <trkpt lat="44.91843" lon="3.94101">
        <ele>949.44</ele>
        <time>2022-06-06T07:35:21Z</time>
      </trkpt>
      <trkpt lat="44.91853" lon="3.94118">
        <ele>948.48</ele>
        <time>2022-06-06T07:35:33Z</time>
      </trkpt>
      <trkpt lat="44.91856" lon="3.94143">
        <ele>945.11</ele>
        <time>2022-06-06T07:35:48Z</time>
      </trkpt>
      <trkpt lat="44.91856" lon="3.94145">
        <ele>941.75</ele>
        <time>2022-06-06T07:35:59Z</time>
      </trkpt>
      <trkpt lat="44.91855" lon="3.94136">
        <ele>939.83</ele>
        <time>2022-06-06T07:36:14Z</time>
      </trkpt>
      <trkpt lat="44.91854" lon="3.94135">
        <ele>938.86</ele>
        <time>2022-06-06T07:36:42Z</time>
      </trkpt>
      <trkpt lat="44.91857" lon="3.94144">
        <ele>937.9</ele>
        <time>2022-06-06T07:37:08Z</time>
      </trkpt>
      <trkpt lat="44.91852" lon="3.94157">
        <ele>938.86</ele>
        <time>2022-06-06T07:37:22Z</time>
      </trkpt>
      <trkpt lat="44.91858" lon="3.94181">
        <ele>938.38</ele>
        <time>2022-06-06T07:37:37Z</time>
      </trkpt>
      <trkpt lat="44.91861" lon="3.94211">
        <ele>942.71</ele>
        <time>2022-06-06T07:37:54Z</time>
      </trkpt>
      <trkpt lat="44.9187" lon="3.94237">
        <ele>946.56</ele>
        <time>2022-06-06T07:38:09Z</time>
      </trkpt>
      <trkpt lat="44.9188" lon="3.94243">
        <ele>947.52</ele>
        <time>2022-06-06T07:38:22Z</time>
      </trkpt>
      <trkpt lat="44.91892" lon="3.94247">
        <ele>949.44</ele>
        <time>2022-06-06T07:38:34Z</time>
      </trkpt>
      <trkpt lat="44.91893" lon="3.94249">
        <ele>949.44</ele>
        <time>2022-06-06T07:38:35Z</time>
      </trkpt>
      <trkpt lat="44.91907" lon="3.94268">
        <ele>950.4</ele>
        <time>2022-06-06T07:38:48Z</time>
      </trkpt>
      <trkpt lat="44.91924" lon="3.94281">
        <ele>950.4</ele>
        <time>2022-06-06T07:39:03Z</time>
      </trkpt>
      <trkpt lat="44.91945" lon="3.94314">
        <ele>948.48</ele>
        <time>2022-06-06T07:39:17Z</time>
      </trkpt>
      <trkpt lat="44.91958" lon="3.94341">
        <ele>946.07</ele>
        <time>2022-06-06T07:39:31Z</time>
      </trkpt>
      <trkpt lat="44.91969" lon="3.94369">
        <ele>944.63</ele>
        <time>2022-06-06T07:39:45Z</time>
      </trkpt>
      <trkpt lat="44.91979" lon="3.94401">
        <ele>942.23</ele>
        <time>2022-06-06T07:40:02Z</time>
      </trkpt>
      <trkpt lat="44.91989" lon="3.94429">
        <ele>942.23</ele>
        <time>2022-06-06T07:40:18Z</time>
      </trkpt>
      <trkpt lat="44.91998" lon="3.94458">
        <ele>940.79</ele>
        <time>2022-06-06T07:40:34Z</time>
      </trkpt>
      <trkpt lat="44.92007" lon="3.94485">
        <ele>939.35</ele>
        <time>2022-06-06T07:40:52Z</time>
      </trkpt>
      <trkpt lat="44.92015" lon="3.94514">
        <ele>937.9</ele>
        <time>2022-06-06T07:41:12Z</time>
      </trkpt>
      <trkpt lat="44.92015" lon="3.94518">
        <ele>937.9</ele>
        <time>2022-06-06T07:41:15Z</time>
      </trkpt>
      <trkpt lat="44.92016" lon="3.9456">
        <ele>934.06</ele>
        <time>2022-06-06T07:41:33Z</time>
      </trkpt>
      <trkpt lat="44.92015" lon="3.94572">
        <ele>931.17</ele>
        <time>2022-06-06T07:41:47Z</time>
      </trkpt>
      <trkpt lat="44.92012" lon="3.94603">
        <ele>929.73</ele>
        <time>2022-06-06T07:42:02Z</time>
      </trkpt>
      <trkpt lat="44.92013" lon="3.94653">
        <ele>927.81</ele>
        <time>2022-06-06T07:42:14Z</time>
      </trkpt>
      <trkpt lat="44.92024" lon="3.94695">
        <ele>930.69</ele>
        <time>2022-06-06T07:42:26Z</time>
      </trkpt>
      <trkpt lat="44.92026" lon="3.94699">
        <ele>931.65</ele>
        <time>2022-06-06T07:42:29Z</time>
      </trkpt>
      <trkpt lat="44.92047" lon="3.94689">
        <ele>939.35</ele>
        <time>2022-06-06T07:42:47Z</time>
      </trkpt>
      <trkpt lat="44.92074" lon="3.94666">
        <ele>942.23</ele>
        <time>2022-06-06T07:43:06Z</time>
      </trkpt>
      <trkpt lat="44.92097" lon="3.94662">
        <ele>944.15</ele>
        <time>2022-06-06T07:43:23Z</time>
      </trkpt>
      <trkpt lat="44.92118" lon="3.94678">
        <ele>946.07</ele>
        <time>2022-06-06T07:43:38Z</time>
      </trkpt>
      <trkpt lat="44.92122" lon="3.94681">
        <ele>947.04</ele>
        <time>2022-06-06T07:43:41Z</time>
      </trkpt>
      <trkpt lat="44.92124" lon="3.94682">
        <ele>947.52</ele>
        <time>2022-06-06T07:43:42Z</time>
      </trkpt>
      <trkpt lat="44.92143" lon="3.94694">
        <ele>951.84</ele>
        <time>2022-06-06T07:43:56Z</time>
      </trkpt>
      <trkpt lat="44.92165" lon="3.94711">
        <ele>955.21</ele>
        <time>2022-06-06T07:44:15Z</time>
      </trkpt>
      <trkpt lat="44.92191" lon="3.9473">
        <ele>957.13</ele>
        <time>2022-06-06T07:44:33Z</time>
      </trkpt>
      <trkpt lat="44.92218" lon="3.94749">
        <ele>960.01</ele>
        <time>2022-06-06T07:44:51Z</time>
      </trkpt>
      <trkpt lat="44.92243" lon="3.94767">
        <ele>961.46</ele>
        <time>2022-06-06T07:45:07Z</time>
      </trkpt>
      <trkpt lat="44.92263" lon="3.94785">
        <ele>960.49</ele>
        <time>2022-06-06T07:45:23Z</time>
      </trkpt>
      <trkpt lat="44.92288" lon="3.94813">
        <ele>959.53</ele>
        <time>2022-06-06T07:45:41Z</time>
      </trkpt>
      <trkpt lat="44.92303" lon="3.94834">
        <ele>958.57</ele>
        <time>2022-06-06T07:45:54Z</time>
      </trkpt>
      <trkpt lat="44.92319" lon="3.9486">
        <ele>959.53</ele>
        <time>2022-06-06T07:46:09Z</time>
      </trkpt>
      <trkpt lat="44.92332" lon="3.94887">
        <ele>960.01</ele>
        <time>2022-06-06T07:46:24Z</time>
      </trkpt>
      <trkpt lat="44.92346" lon="3.94918">
        <ele>959.05</ele>
        <time>2022-06-06T07:46:39Z</time>
      </trkpt>
      <trkpt lat="44.92359" lon="3.94954">
        <ele>959.05</ele>
        <time>2022-06-06T07:46:56Z</time>
      </trkpt>
      <trkpt lat="44.92368" lon="3.94988">
        <ele>958.09</ele>
        <time>2022-06-06T07:47:13Z</time>
      </trkpt>
      <trkpt lat="44.92374" lon="3.9502">
        <ele>958.57</ele>
        <time>2022-06-06T07:47:29Z</time>
      </trkpt>
      <trkpt lat="44.92379" lon="3.95051">
        <ele>959.53</ele>
        <time>2022-06-06T07:47:43Z</time>
      </trkpt>
      <trkpt lat="44.92382" lon="3.9508">
        <ele>958.57</ele>
        <time>2022-06-06T07:47:57Z</time>
      </trkpt>
      <trkpt lat="44.92389" lon="3.95121">
        <ele>958.09</ele>
        <time>2022-06-06T07:48:15Z</time>
      </trkpt>
      <trkpt lat="44.92396" lon="3.9516">
        <ele>956.65</ele>
        <time>2022-06-06T07:48:34Z</time>
      </trkpt>
      <trkpt lat="44.92403" lon="3.95193">
        <ele>957.13</ele>
        <time>2022-06-06T07:48:49Z</time>
      </trkpt>
      <trkpt lat="44.92408" lon="3.95233">
        <ele>958.09</ele>
        <time>2022-06-06T07:49:08Z</time>
      </trkpt>
      <trkpt lat="44.92412" lon="3.95271">
        <ele>957.61</ele>
        <time>2022-06-06T07:49:26Z</time>
      </trkpt>
      <trkpt lat="44.92416" lon="3.95301">
        <ele>958.09</ele>
        <time>2022-06-06T07:49:41Z</time>
      </trkpt>
      <trkpt lat="44.92417" lon="3.95306">
        <ele>962.9</ele>
        <time>2022-06-06T07:49:55Z</time>
      </trkpt>
      <trkpt lat="44.92417" lon="3.9531">
        <ele>958.57</ele>
        <time>2022-06-06T07:50:17Z</time>
      </trkpt>
      <trkpt lat="44.92419" lon="3.95324">
        <ele>958.57</ele>
        <time>2022-06-06T07:50:31Z</time>
      </trkpt>
      <trkpt lat="44.92422" lon="3.95357">
        <ele>960.01</ele>
        <time>2022-06-06T07:50:48Z</time>
      </trkpt>
      <trkpt lat="44.92427" lon="3.95391">
        <ele>962.42</ele>
        <time>2022-06-06T07:51:04Z</time>
      </trkpt>
      <trkpt lat="44.9243" lon="3.95424">
        <ele>962.42</ele>
        <time>2022-06-06T07:51:21Z</time>
      </trkpt>
      <trkpt lat="44.92434" lon="3.95456">
        <ele>963.86</ele>
        <time>2022-06-06T07:51:36Z</time>
      </trkpt>
      <trkpt lat="44.92436" lon="3.9549">
        <ele>964.34</ele>
        <time>2022-06-06T07:51:50Z</time>
      </trkpt>
      <trkpt lat="44.92444" lon="3.95521">
        <ele>963.86</ele>
        <time>2022-06-06T07:52:04Z</time>
      </trkpt>
      <trkpt lat="44.92451" lon="3.95538">
        <ele>969.15</ele>
        <time>2022-06-06T07:52:21Z</time>
      </trkpt>
      <trkpt lat="44.92455" lon="3.95535">
        <ele>969.15</ele>
        <time>2022-06-06T07:52:26Z</time>
      </trkpt>
      <trkpt lat="44.92456" lon="3.95534">
        <ele>969.63</ele>
        <time>2022-06-06T07:52:27Z</time>
      </trkpt>
      <trkpt lat="44.92456" lon="3.95532">
        <ele>969.63</ele>
        <time>2022-06-06T07:52:28Z</time>
      </trkpt>
      <trkpt lat="44.92457" lon="3.95531">
        <ele>969.63</ele>
        <time>2022-06-06T07:52:29Z</time>
      </trkpt>
      <trkpt lat="44.92457" lon="3.95529">
        <ele>969.63</ele>
        <time>2022-06-06T07:52:30Z</time>
      </trkpt>
      <trkpt lat="44.92469" lon="3.95502">
        <ele>967.22</ele>
        <time>2022-06-06T07:52:49Z</time>
      </trkpt>
      <trkpt lat="44.92479" lon="3.95474">
        <ele>965.3</ele>
        <time>2022-06-06T07:53:05Z</time>
      </trkpt>
      <trkpt lat="44.92491" lon="3.95441">
        <ele>962.9</ele>
        <time>2022-06-06T07:53:25Z</time>
      </trkpt>
      <trkpt lat="44.92503" lon="3.9541">
        <ele>960.01</ele>
        <time>2022-06-06T07:53:43Z</time>
      </trkpt>
      <trkpt lat="44.92514" lon="3.95381">
        <ele>956.17</ele>
        <time>2022-06-06T07:53:59Z</time>
      </trkpt>
      <trkpt lat="44.92525" lon="3.95354">
        <ele>954.73</ele>
        <time>2022-06-06T07:54:14Z</time>
      </trkpt>
      <trkpt lat="44.92537" lon="3.95321">
        <ele>954.25</ele>
        <time>2022-06-06T07:54:32Z</time>
      </trkpt>
      <trkpt lat="44.92554" lon="3.9528">
        <ele>951.84</ele>
        <time>2022-06-06T07:54:51Z</time>
      </trkpt>
      <trkpt lat="44.9257" lon="3.95239">
        <ele>951.84</ele>
        <time>2022-06-06T07:55:09Z</time>
      </trkpt>
      <trkpt lat="44.9258" lon="3.95211">
        <ele>949.44</ele>
        <time>2022-06-06T07:55:25Z</time>
      </trkpt>
      <trkpt lat="44.92591" lon="3.95179">
        <ele>948.96</ele>
        <time>2022-06-06T07:55:42Z</time>
      </trkpt>
      <trkpt lat="44.92605" lon="3.95136">
        <ele>951.36</ele>
        <time>2022-06-06T07:55:59Z</time>
      </trkpt>
      <trkpt lat="44.92613" lon="3.95109">
        <ele>949.92</ele>
        <time>2022-06-06T07:56:14Z</time>
      </trkpt>
      <trkpt lat="44.92621" lon="3.95082">
        <ele>950.4</ele>
        <time>2022-06-06T07:56:29Z</time>
      </trkpt>
      <trkpt lat="44.92629" lon="3.9505">
        <ele>950.4</ele>
        <time>2022-06-06T07:56:47Z</time>
      </trkpt>
      <trkpt lat="44.92642" lon="3.95017">
        <ele>950.4</ele>
        <time>2022-06-06T07:57:05Z</time>
      </trkpt>
      <trkpt lat="44.92647" lon="3.95011">
        <ele>950.88</ele>
        <time>2022-06-06T07:57:10Z</time>
      </trkpt>
      <trkpt lat="44.92649" lon="3.95011">
        <ele>950.88</ele>
        <time>2022-06-06T07:57:11Z</time>
      </trkpt>
      <trkpt lat="44.92651" lon="3.95012">
        <ele>951.36</ele>
        <time>2022-06-06T07:57:12Z</time>
      </trkpt>
      <trkpt lat="44.92652" lon="3.95012">
        <ele>951.36</ele>
        <time>2022-06-06T07:57:13Z</time>
      </trkpt>
      <trkpt lat="44.92653" lon="3.95013">
        <ele>951.36</ele>
        <time>2022-06-06T07:57:14Z</time>
      </trkpt>
      <trkpt lat="44.92654" lon="3.95016">
        <ele>951.36</ele>
        <time>2022-06-06T07:57:15Z</time>
      </trkpt>
      <trkpt lat="44.92655" lon="3.95018">
        <ele>951.36</ele>
        <time>2022-06-06T07:57:16Z</time>
      </trkpt>
      <trkpt lat="44.92673" lon="3.95055">
        <ele>952.32</ele>
        <time>2022-06-06T07:57:32Z</time>
      </trkpt>
      <trkpt lat="44.9268" lon="3.95087">
        <ele>949.44</ele>
        <time>2022-06-06T07:57:49Z</time>
      </trkpt>
      <trkpt lat="44.92688" lon="3.95118">
        <ele>948.48</ele>
        <time>2022-06-06T07:58:05Z</time>
      </trkpt>
      <trkpt lat="44.92703" lon="3.95147">
        <ele>948.96</ele>
        <time>2022-06-06T07:58:23Z</time>
      </trkpt>
      <trkpt lat="44.92722" lon="3.95164">
        <ele>951.36</ele>
        <time>2022-06-06T07:58:38Z</time>
      </trkpt>
      <trkpt lat="44.92739" lon="3.95186">
        <ele>952.32</ele>
        <time>2022-06-06T07:58:54Z</time>
      </trkpt>
      <trkpt lat="44.92751" lon="3.95212">
        <ele>951.36</ele>
        <time>2022-06-06T07:59:11Z</time>
      </trkpt>
      <trkpt lat="44.92762" lon="3.95245">
        <ele>950.4</ele>
        <time>2022-06-06T07:59:26Z</time>
      </trkpt>
      <trkpt lat="44.92769" lon="3.95275">
        <ele>948.48</ele>
        <time>2022-06-06T07:59:42Z</time>
      </trkpt>
      <trkpt lat="44.92781" lon="3.95305">
        <ele>946.56</ele>
        <time>2022-06-06T07:59:59Z</time>
      </trkpt>
      <trkpt lat="44.9279" lon="3.95335">
        <ele>947.04</ele>
        <time>2022-06-06T08:00:14Z</time>
      </trkpt>
      <trkpt lat="44.92806" lon="3.9536">
        <ele>947.04</ele>
        <time>2022-06-06T08:00:30Z</time>
      </trkpt>
      <trkpt lat="44.92826" lon="3.95369">
        <ele>948.48</ele>
        <time>2022-06-06T08:00:47Z</time>
      </trkpt>
      <trkpt lat="44.92847" lon="3.9537">
        <ele>948.48</ele>
        <time>2022-06-06T08:01:04Z</time>
      </trkpt>
      <trkpt lat="44.92865" lon="3.9537">
        <ele>947.52</ele>
        <time>2022-06-06T08:01:19Z</time>
      </trkpt>
      <trkpt lat="44.92882" lon="3.95367">
        <ele>946.56</ele>
        <time>2022-06-06T08:01:34Z</time>
      </trkpt>
      <trkpt lat="44.92902" lon="3.95363">
        <ele>945.11</ele>
        <time>2022-06-06T08:01:51Z</time>
      </trkpt>
      <trkpt lat="44.92921" lon="3.95344">
        <ele>941.75</ele>
        <time>2022-06-06T08:02:08Z</time>
      </trkpt>
      <trkpt lat="44.92938" lon="3.95318">
        <ele>939.35</ele>
        <time>2022-06-06T08:02:27Z</time>
      </trkpt>
      <trkpt lat="44.92955" lon="3.95299">
        <ele>937.42</ele>
        <time>2022-06-06T08:02:44Z</time>
      </trkpt>
      <trkpt lat="44.92968" lon="3.95278">
        <ele>935.98</ele>
        <time>2022-06-06T08:03:00Z</time>
      </trkpt>
      <trkpt lat="44.92982" lon="3.95254">
        <ele>935.02</ele>
        <time>2022-06-06T08:03:16Z</time>
      </trkpt>
      <trkpt lat="44.93002" lon="3.95225">
        <ele>931.65</ele>
        <time>2022-06-06T08:03:34Z</time>
      </trkpt>
      <trkpt lat="44.9302" lon="3.95204">
        <ele>928.29</ele>
        <time>2022-06-06T08:03:51Z</time>
      </trkpt>
      <trkpt lat="44.9303" lon="3.95179">
        <ele>924.45</ele>
        <time>2022-06-06T08:04:09Z</time>
      </trkpt>
      <trkpt lat="44.93033" lon="3.95155">
        <ele>919.16</ele>
        <time>2022-06-06T08:04:27Z</time>
      </trkpt>
      <trkpt lat="44.93032" lon="3.95149">
        <ele>918.68</ele>
        <time>2022-06-06T08:04:31Z</time>
      </trkpt>
      <trkpt lat="44.93032" lon="3.95147">
        <ele>918.68</ele>
        <time>2022-06-06T08:04:32Z</time>
      </trkpt>
      <trkpt lat="44.93032" lon="3.95145">
        <ele>918.2</ele>
        <time>2022-06-06T08:04:33Z</time>
      </trkpt>
      <trkpt lat="44.93041" lon="3.9513">
        <ele>915.79</ele>
        <time>2022-06-06T08:04:49Z</time>
      </trkpt>
      <trkpt lat="44.93052" lon="3.95124">
        <ele>912.91</ele>
        <time>2022-06-06T08:05:03Z</time>
      </trkpt>
      <trkpt lat="44.93072" lon="3.95138">
        <ele>908.1</ele>
        <time>2022-06-06T08:05:19Z</time>
      </trkpt>
      <trkpt lat="44.93085" lon="3.9516">
        <ele>902.33</ele>
        <time>2022-06-06T08:05:35Z</time>
      </trkpt>
      <trkpt lat="44.93087" lon="3.95162">
        <ele>901.85</ele>
        <time>2022-06-06T08:05:37Z</time>
      </trkpt>
      <trkpt lat="44.93101" lon="3.95174">
        <ele>897.53</ele>
        <time>2022-06-06T08:05:59Z</time>
      </trkpt>
      <trkpt lat="44.93103" lon="3.95177">
        <ele>896.57</ele>
        <time>2022-06-06T08:06:03Z</time>
      </trkpt>
      <trkpt lat="44.93115" lon="3.95195">
        <ele>893.2</ele>
        <time>2022-06-06T08:06:19Z</time>
      </trkpt>
      <trkpt lat="44.93116" lon="3.95195">
        <ele>893.2</ele>
        <time>2022-06-06T08:06:20Z</time>
      </trkpt>
      <trkpt lat="44.93137" lon="3.95201">
        <ele>890.32</ele>
        <time>2022-06-06T08:06:33Z</time>
      </trkpt>
      <trkpt lat="44.93161" lon="3.95214">
        <ele>888.4</ele>
        <time>2022-06-06T08:06:47Z</time>
      </trkpt>
      <trkpt lat="44.93184" lon="3.95227">
        <ele>887.43</ele>
        <time>2022-06-06T08:07:01Z</time>
      </trkpt>
      <trkpt lat="44.93187" lon="3.95231">
        <ele>887.91</ele>
        <time>2022-06-06T08:07:05Z</time>
      </trkpt>
      <trkpt lat="44.93198" lon="3.95249">
        <ele>889.36</ele>
        <time>2022-06-06T08:07:17Z</time>
      </trkpt>
      <trkpt lat="44.932" lon="3.95251">
        <ele>889.36</ele>
        <time>2022-06-06T08:07:18Z</time>
      </trkpt>
      <trkpt lat="44.93201" lon="3.95251">
        <ele>889.36</ele>
        <time>2022-06-06T08:07:19Z</time>
      </trkpt>
      <trkpt lat="44.93202" lon="3.95251">
        <ele>889.36</ele>
        <time>2022-06-06T08:07:20Z</time>
      </trkpt>
      <trkpt lat="44.93203" lon="3.9525">
        <ele>889.36</ele>
        <time>2022-06-06T08:07:21Z</time>
      </trkpt>
      <trkpt lat="44.93207" lon="3.95245">
        <ele>888.88</ele>
        <time>2022-06-06T08:07:27Z</time>
      </trkpt>
      <trkpt lat="44.93208" lon="3.95244">
        <ele>888.88</ele>
        <time>2022-06-06T08:07:28Z</time>
      </trkpt>
      <trkpt lat="44.93222" lon="3.95229">
        <ele>888.4</ele>
        <time>2022-06-06T08:07:40Z</time>
      </trkpt>
      <trkpt lat="44.93223" lon="3.95228">
        <ele>887.91</ele>
        <time>2022-06-06T08:07:41Z</time>
      </trkpt>
      <trkpt lat="44.93247" lon="3.95224">
        <ele>891.28</ele>
        <time>2022-06-06T08:07:55Z</time>
      </trkpt>
      <trkpt lat="44.93268" lon="3.95218">
        <ele>894.64</ele>
        <time>2022-06-06T08:08:12Z</time>
      </trkpt>
      <trkpt lat="44.93294" lon="3.9522">
        <ele>894.16</ele>
        <time>2022-06-06T08:08:32Z</time>
      </trkpt>
      <trkpt lat="44.93309" lon="3.95218">
        <ele>890.8</ele>
        <time>2022-06-06T08:08:42Z</time>
      </trkpt>
      <trkpt lat="44.93317" lon="3.95217">
        <ele>889.36</ele>
        <time>2022-06-06T08:08:48Z</time>
      </trkpt>
      <trkpt lat="44.9333" lon="3.9521">
        <ele>887.91</ele>
        <time>2022-06-06T08:09:04Z</time>
      </trkpt>
      <trkpt lat="44.93331" lon="3.95208">
        <ele>888.4</ele>
        <time>2022-06-06T08:09:21Z</time>
      </trkpt>
      <trkpt lat="44.93332" lon="3.95209">
        <ele>889.36</ele>
        <time>2022-06-06T08:09:36Z</time>
      </trkpt>
      <trkpt lat="44.93331" lon="3.95207">
        <ele>889.84</ele>
        <time>2022-06-06T08:09:55Z</time>
      </trkpt>
      <trkpt lat="44.93341" lon="3.95201">
        <ele>890.32</ele>
        <time>2022-06-06T08:10:09Z</time>
      </trkpt>
      <trkpt lat="44.93348" lon="3.95186">
        <ele>891.28</ele>
        <time>2022-06-06T08:10:22Z</time>
      </trkpt>
      <trkpt lat="44.93368" lon="3.95169">
        <ele>889.36</ele>
        <time>2022-06-06T08:10:40Z</time>
      </trkpt>
      <trkpt lat="44.93392" lon="3.95147">
        <ele>889.84</ele>
        <time>2022-06-06T08:10:57Z</time>
      </trkpt>
      <trkpt lat="44.93398" lon="3.95137">
        <ele>885.99</ele>
        <time>2022-06-06T08:11:13Z</time>
      </trkpt>
      <trkpt lat="44.93406" lon="3.95144">
        <ele>883.59</ele>
        <time>2022-06-06T08:11:37Z</time>
      </trkpt>
      <trkpt lat="44.93417" lon="3.95144">
        <ele>880.71</ele>
        <time>2022-06-06T08:11:56Z</time>
      </trkpt>
      <trkpt lat="44.93417" lon="3.95142">
        <ele>878.3</ele>
        <time>2022-06-06T08:12:16Z</time>
      </trkpt>
      <trkpt lat="44.93405" lon="3.95142">
        <ele>883.11</ele>
        <time>2022-06-06T08:12:33Z</time>
      </trkpt>
      <trkpt lat="44.934" lon="3.95147">
        <ele>885.51</ele>
        <time>2022-06-06T08:12:47Z</time>
      </trkpt>
      <trkpt lat="44.93397" lon="3.95146">
        <ele>884.55</ele>
        <time>2022-06-06T08:13:06Z</time>
      </trkpt>
      <trkpt lat="44.93395" lon="3.95144">
        <ele>883.11</ele>
        <time>2022-06-06T08:13:31Z</time>
      </trkpt>
      <trkpt lat="44.93397" lon="3.95145">
        <ele>885.99</ele>
        <time>2022-06-06T08:13:51Z</time>
      </trkpt>
      <trkpt lat="44.93395" lon="3.95142">
        <ele>889.36</ele>
        <time>2022-06-06T08:14:06Z</time>
      </trkpt>
      <trkpt lat="44.934" lon="3.95139">
        <ele>889.84</ele>
        <time>2022-06-06T08:14:28Z</time>
      </trkpt>
      <trkpt lat="44.93399" lon="3.95137">
        <ele>888.88</ele>
        <time>2022-06-06T08:14:51Z</time>
      </trkpt>
      <trkpt lat="44.93399" lon="3.95147">
        <ele>890.8</ele>
        <time>2022-06-06T08:15:10Z</time>
      </trkpt>
      <trkpt lat="44.93393" lon="3.95159">
        <ele>891.76</ele>
        <time>2022-06-06T08:15:25Z</time>
      </trkpt>
      <trkpt lat="44.93389" lon="3.95163">
        <ele>893.2</ele>
        <time>2022-06-06T08:15:28Z</time>
      </trkpt>
      <trkpt lat="44.93369" lon="3.95186">
        <ele>893.2</ele>
        <time>2022-06-06T08:15:48Z</time>
      </trkpt>
      <trkpt lat="44.93355" lon="3.95196">
        <ele>890.8</ele>
        <time>2022-06-06T08:16:00Z</time>
      </trkpt>
      <trkpt lat="44.93323" lon="3.95212">
        <ele>890.8</ele>
        <time>2022-06-06T08:16:22Z</time>
      </trkpt>
      <trkpt lat="44.93295" lon="3.95218">
        <ele>888.88</ele>
        <time>2022-06-06T08:16:43Z</time>
      </trkpt>
      <trkpt lat="44.93271" lon="3.95218">
        <ele>890.32</ele>
        <time>2022-06-06T08:16:58Z</time>
      </trkpt>
      <trkpt lat="44.93261" lon="3.95217">
        <ele>890.32</ele>
        <time>2022-06-06T08:17:14Z</time>
      </trkpt>
      <trkpt lat="44.93244" lon="3.95224">
        <ele>889.36</ele>
        <time>2022-06-06T08:17:29Z</time>
      </trkpt>
      <trkpt lat="44.93215" lon="3.95242">
        <ele>888.88</ele>
        <time>2022-06-06T08:17:46Z</time>
      </trkpt>
      <trkpt lat="44.93198" lon="3.95252">
        <ele>888.88</ele>
        <time>2022-06-06T08:17:59Z</time>
      </trkpt>
      <trkpt lat="44.93194" lon="3.95246">
        <ele>888.88</ele>
        <time>2022-06-06T08:18:14Z</time>
      </trkpt>
      <trkpt lat="44.93191" lon="3.95242">
        <ele>889.36</ele>
        <time>2022-06-06T08:18:19Z</time>
      </trkpt>
      <trkpt lat="44.9319" lon="3.95241">
        <ele>888.88</ele>
        <time>2022-06-06T08:18:21Z</time>
      </trkpt>
      <trkpt lat="44.93199" lon="3.95222">
        <ele>885.51</ele>
        <time>2022-06-06T08:18:36Z</time>
      </trkpt>
      <trkpt lat="44.93214" lon="3.95202">
        <ele>883.11</ele>
        <time>2022-06-06T08:18:50Z</time>
      </trkpt>
      <trkpt lat="44.93231" lon="3.95188">
        <ele>881.67</ele>
        <time>2022-06-06T08:19:02Z</time>
      </trkpt>
      <trkpt lat="44.93246" lon="3.95169">
        <ele>879.74</ele>
        <time>2022-06-06T08:19:15Z</time>
      </trkpt>
      <trkpt lat="44.9326" lon="3.95138">
        <ele>883.59</ele>
        <time>2022-06-06T08:19:33Z</time>
      </trkpt>
      <trkpt lat="44.93267" lon="3.95125">
        <ele>882.63</ele>
        <time>2022-06-06T08:19:48Z</time>
      </trkpt>
      <trkpt lat="44.93269" lon="3.95108">
        <ele>881.19</ele>
        <time>2022-06-06T08:20:02Z</time>
      </trkpt>
      <trkpt lat="44.93272" lon="3.95086">
        <ele>880.22</ele>
        <time>2022-06-06T08:20:16Z</time>
      </trkpt>
      <trkpt lat="44.93279" lon="3.95057">
        <ele>876.86</ele>
        <time>2022-06-06T08:20:30Z</time>
      </trkpt>
      <trkpt lat="44.93293" lon="3.95019">
        <ele>873.5</ele>
        <time>2022-06-06T08:20:47Z</time>
      </trkpt>
      <trkpt lat="44.93304" lon="3.95002">
        <ele>872.53</ele>
        <time>2022-06-06T08:21:00Z</time>
      </trkpt>
      <trkpt lat="44.93318" lon="3.94976">
        <ele>870.13</ele>
        <time>2022-06-06T08:21:16Z</time>
      </trkpt>
      <trkpt lat="44.93328" lon="3.94945">
        <ele>863.88</ele>
        <time>2022-06-06T08:21:34Z</time>
      </trkpt>
      <trkpt lat="44.93343" lon="3.94928">
        <ele>857.15</ele>
        <time>2022-06-06T08:21:49Z</time>
      </trkpt>
      <trkpt lat="44.9335" lon="3.94912">
        <ele>855.71</ele>
        <time>2022-06-06T08:22:04Z</time>
      </trkpt>
      <trkpt lat="44.93356" lon="3.94892">
        <ele>852.83</ele>
        <time>2022-06-06T08:22:18Z</time>
      </trkpt>
      <trkpt lat="44.93357" lon="3.94877">
        <ele>849.46</ele>
        <time>2022-06-06T08:22:35Z</time>
      </trkpt>
      <trkpt lat="44.93355" lon="3.94882">
        <ele>848.5</ele>
        <time>2022-06-06T08:22:38Z</time>
      </trkpt>
      <trkpt lat="44.93336" lon="3.94909">
        <ele>847.54</ele>
        <time>2022-06-06T08:22:53Z</time>
      </trkpt>
      <trkpt lat="44.93312" lon="3.9494">
        <ele>851.87</ele>
        <time>2022-06-06T08:23:08Z</time>
      </trkpt>
      <trkpt lat="44.93306" lon="3.94963">
        <ele>856.19</ele>
        <time>2022-06-06T08:23:24Z</time>
      </trkpt>
      <trkpt lat="44.93293" lon="3.94974">
        <ele>857.15</ele>
        <time>2022-06-06T08:23:33Z</time>
      </trkpt>
      <trkpt lat="44.93276" lon="3.94989">
        <ele>856.19</ele>
        <time>2022-06-06T08:23:48Z</time>
      </trkpt>
      <trkpt lat="44.93271" lon="3.94992">
        <ele>855.23</ele>
        <time>2022-06-06T08:23:52Z</time>
      </trkpt>
      <trkpt lat="44.93266" lon="3.94991">
        <ele>854.75</ele>
        <time>2022-06-06T08:23:55Z</time>
      </trkpt>
      <trkpt lat="44.93263" lon="3.94986">
        <ele>855.23</ele>
        <time>2022-06-06T08:23:57Z</time>
      </trkpt>
      <trkpt lat="44.93265" lon="3.94951">
        <ele>856.67</ele>
        <time>2022-06-06T08:24:13Z</time>
      </trkpt>
      <trkpt lat="44.93277" lon="3.94917">
        <ele>858.11</ele>
        <time>2022-06-06T08:24:30Z</time>
      </trkpt>
      <trkpt lat="44.93285" lon="3.94894">
        <ele>854.75</ele>
        <time>2022-06-06T08:24:45Z</time>
      </trkpt>
      <trkpt lat="44.93287" lon="3.94863">
        <ele>853.31</ele>
        <time>2022-06-06T08:25:03Z</time>
      </trkpt>
      <trkpt lat="44.93296" lon="3.94829">
        <ele>856.19</ele>
        <time>2022-06-06T08:25:22Z</time>
      </trkpt>
      <trkpt lat="44.93312" lon="3.94795">
        <ele>854.27</ele>
        <time>2022-06-06T08:25:39Z</time>
      </trkpt>
      <trkpt lat="44.93324" lon="3.94765">
        <ele>854.27</ele>
        <time>2022-06-06T08:25:54Z</time>
      </trkpt>
      <trkpt lat="44.93333" lon="3.94734">
        <ele>854.75</ele>
        <time>2022-06-06T08:26:12Z</time>
      </trkpt>
      <trkpt lat="44.93329" lon="3.94699">
        <ele>859.08</ele>
        <time>2022-06-06T08:26:29Z</time>
      </trkpt>
      <trkpt lat="44.93329" lon="3.94681">
        <ele>860.52</ele>
        <time>2022-06-06T08:26:38Z</time>
      </trkpt>
      <trkpt lat="44.93335" lon="3.94636">
        <ele>861</ele>
        <time>2022-06-06T08:26:56Z</time>
      </trkpt>
      <trkpt lat="44.93342" lon="3.94597">
        <ele>862.92</ele>
        <time>2022-06-06T08:27:13Z</time>
      </trkpt>
      <trkpt lat="44.93345" lon="3.94561">
        <ele>864.84</ele>
        <time>2022-06-06T08:27:31Z</time>
      </trkpt>
      <trkpt lat="44.93347" lon="3.94556">
        <ele>864.84</ele>
        <time>2022-06-06T08:27:33Z</time>
      </trkpt>
      <trkpt lat="44.93353" lon="3.94538">
        <ele>859.56</ele>
        <time>2022-06-06T08:27:47Z</time>
      </trkpt>
      <trkpt lat="44.93354" lon="3.9453">
        <ele>858.11</ele>
        <time>2022-06-06T08:27:56Z</time>
      </trkpt>
      <trkpt lat="44.9335" lon="3.94483">
        <ele>861.48</ele>
        <time>2022-06-06T08:28:17Z</time>
      </trkpt>
      <trkpt lat="44.93347" lon="3.94451">
        <ele>864.36</ele>
        <time>2022-06-06T08:28:36Z</time>
      </trkpt>
      <trkpt lat="44.93347" lon="3.94447">
        <ele>864.84</ele>
        <time>2022-06-06T08:28:38Z</time>
      </trkpt>
      <trkpt lat="44.93352" lon="3.94411">
        <ele>870.13</ele>
        <time>2022-06-06T08:28:54Z</time>
      </trkpt>
      <trkpt lat="44.93355" lon="3.94388">
        <ele>873.98</ele>
        <time>2022-06-06T08:29:09Z</time>
      </trkpt>
      <trkpt lat="44.93348" lon="3.9436">
        <ele>879.74</ele>
        <time>2022-06-06T08:29:25Z</time>
      </trkpt>
      <trkpt lat="44.93328" lon="3.94347">
        <ele>882.63</ele>
        <time>2022-06-06T08:29:39Z</time>
      </trkpt>
      <trkpt lat="44.93309" lon="3.94343">
        <ele>884.55</ele>
        <time>2022-06-06T08:29:52Z</time>
      </trkpt>
      <trkpt lat="44.93308" lon="3.94342">
        <ele>884.55</ele>
        <time>2022-06-06T08:29:53Z</time>
      </trkpt>
      <trkpt lat="44.93307" lon="3.94341">
        <ele>884.55</ele>
        <time>2022-06-06T08:29:54Z</time>
      </trkpt>
      <trkpt lat="44.93291" lon="3.94325">
        <ele>885.99</ele>
        <time>2022-06-06T08:30:08Z</time>
      </trkpt>
      <trkpt lat="44.93283" lon="3.94321">
        <ele>886.95</ele>
        <time>2022-06-06T08:30:23Z</time>
      </trkpt>
      <trkpt lat="44.93279" lon="3.9431">
        <ele>887.43</ele>
        <time>2022-06-06T08:30:40Z</time>
      </trkpt>
      <trkpt lat="44.93278" lon="3.94303">
        <ele>886.95</ele>
        <time>2022-06-06T08:30:46Z</time>
      </trkpt>
      <trkpt lat="44.93277" lon="3.94302">
        <ele>886.95</ele>
        <time>2022-06-06T08:30:47Z</time>
      </trkpt>
      <trkpt lat="44.93275" lon="3.94296">
        <ele>885.99</ele>
        <time>2022-06-06T08:30:52Z</time>
      </trkpt>
      <trkpt lat="44.93274" lon="3.94295">
        <ele>885.99</ele>
        <time>2022-06-06T08:30:53Z</time>
      </trkpt>
      <trkpt lat="44.93274" lon="3.94294">
        <ele>885.99</ele>
        <time>2022-06-06T08:30:54Z</time>
      </trkpt>
      <trkpt lat="44.93269" lon="3.94273">
        <ele>882.15</ele>
        <time>2022-06-06T08:31:12Z</time>
      </trkpt>
      <trkpt lat="44.93268" lon="3.94254">
        <ele>879.26</ele>
        <time>2022-06-06T08:31:27Z</time>
      </trkpt>
      <trkpt lat="44.9326" lon="3.94236">
        <ele>874.46</ele>
        <time>2022-06-06T08:31:45Z</time>
      </trkpt>
      <trkpt lat="44.93257" lon="3.94226">
        <ele>873.5</ele>
        <time>2022-06-06T08:32:02Z</time>
      </trkpt>
      <trkpt lat="44.93243" lon="3.94202">
        <ele>872.05</ele>
        <time>2022-06-06T08:32:18Z</time>
      </trkpt>
      <trkpt lat="44.93236" lon="3.94179">
        <ele>871.09</ele>
        <time>2022-06-06T08:32:32Z</time>
      </trkpt>
      <trkpt lat="44.93227" lon="3.94151">
        <ele>867.25</ele>
        <time>2022-06-06T08:32:50Z</time>
      </trkpt>
      <trkpt lat="44.93227" lon="3.94125">
        <ele>862.44</ele>
        <time>2022-06-06T08:33:07Z</time>
      </trkpt>
      <trkpt lat="44.93234" lon="3.94088">
        <ele>858.59</ele>
        <time>2022-06-06T08:33:25Z</time>
      </trkpt>
      <trkpt lat="44.9324" lon="3.94068">
        <ele>857.63</ele>
        <time>2022-06-06T08:33:35Z</time>
      </trkpt>
      <trkpt lat="44.93249" lon="3.94041">
        <ele>855.23</ele>
        <time>2022-06-06T08:33:54Z</time>
      </trkpt>
      <trkpt lat="44.93254" lon="3.9403">
        <ele>854.27</ele>
        <time>2022-06-06T08:34:03Z</time>
      </trkpt>
      <trkpt lat="44.93254" lon="3.94016">
        <ele>852.83</ele>
        <time>2022-06-06T08:34:14Z</time>
      </trkpt>
      <trkpt lat="44.93255" lon="3.94014">
        <ele>852.83</ele>
        <time>2022-06-06T08:34:15Z</time>
      </trkpt>
      <trkpt lat="44.9326" lon="3.94001">
        <ele>848.98</ele>
        <time>2022-06-06T08:34:26Z</time>
      </trkpt>
      <trkpt lat="44.93259" lon="3.93997">
        <ele>847.54</ele>
        <time>2022-06-06T08:34:29Z</time>
      </trkpt>
      <trkpt lat="44.93257" lon="3.9399">
        <ele>846.1</ele>
        <time>2022-06-06T08:34:34Z</time>
      </trkpt>
      <trkpt lat="44.93257" lon="3.93989">
        <ele>845.62</ele>
        <time>2022-06-06T08:34:35Z</time>
      </trkpt>
      <trkpt lat="44.93257" lon="3.93975">
        <ele>844.18</ele>
        <time>2022-06-06T08:34:44Z</time>
      </trkpt>
      <trkpt lat="44.93257" lon="3.93974">
        <ele>844.18</ele>
        <time>2022-06-06T08:34:45Z</time>
      </trkpt>
      <trkpt lat="44.93257" lon="3.93972">
        <ele>844.18</ele>
        <time>2022-06-06T08:34:46Z</time>
      </trkpt>
      <trkpt lat="44.93263" lon="3.93959">
        <ele>840.81</ele>
        <time>2022-06-06T08:35:00Z</time>
      </trkpt>
      <trkpt lat="44.93266" lon="3.93959">
        <ele>840.33</ele>
        <time>2022-06-06T08:35:02Z</time>
      </trkpt>
      <trkpt lat="44.93272" lon="3.9395">
        <ele>836.96</ele>
        <time>2022-06-06T08:35:15Z</time>
      </trkpt>
      <trkpt lat="44.93272" lon="3.93948">
        <ele>836.48</ele>
        <time>2022-06-06T08:35:16Z</time>
      </trkpt>
      <trkpt lat="44.93272" lon="3.93946">
        <ele>836</ele>
        <time>2022-06-06T08:35:17Z</time>
      </trkpt>
      <trkpt lat="44.93272" lon="3.93945">
        <ele>836</ele>
        <time>2022-06-06T08:35:18Z</time>
      </trkpt>
      <trkpt lat="44.93273" lon="3.93943">
        <ele>834.56</ele>
        <time>2022-06-06T08:35:31Z</time>
      </trkpt>
      <trkpt lat="44.93272" lon="3.93942">
        <ele>834.08</ele>
        <time>2022-06-06T08:35:43Z</time>
      </trkpt>
      <trkpt lat="44.93269" lon="3.93938">
        <ele>835.04</ele>
        <time>2022-06-06T08:36:01Z</time>
      </trkpt>
      <trkpt lat="44.93272" lon="3.9394">
        <ele>837.93</ele>
        <time>2022-06-06T08:36:20Z</time>
      </trkpt>
      <trkpt lat="44.93274" lon="3.93938">
        <ele>837.93</ele>
        <time>2022-06-06T08:36:36Z</time>
      </trkpt>
      <trkpt lat="44.93273" lon="3.93934">
        <ele>838.89</ele>
        <time>2022-06-06T08:36:49Z</time>
      </trkpt>
      <trkpt lat="44.93273" lon="3.93923">
        <ele>840.33</ele>
        <time>2022-06-06T08:37:03Z</time>
      </trkpt>
      <trkpt lat="44.9328" lon="3.93921">
        <ele>840.33</ele>
        <time>2022-06-06T08:37:19Z</time>
      </trkpt>
      <trkpt lat="44.93292" lon="3.93923">
        <ele>840.33</ele>
        <time>2022-06-06T08:37:37Z</time>
      </trkpt>
      <trkpt lat="44.93291" lon="3.93919">
        <ele>836.48</ele>
        <time>2022-06-06T08:37:54Z</time>
      </trkpt>
      <trkpt lat="44.93292" lon="3.93916">
        <ele>836.48</ele>
        <time>2022-06-06T08:37:57Z</time>
      </trkpt>
      <trkpt lat="44.93297" lon="3.9391">
        <ele>836.96</ele>
        <time>2022-06-06T08:38:09Z</time>
      </trkpt>
      <trkpt lat="44.93298" lon="3.93906">
        <ele>836</ele>
        <time>2022-06-06T08:38:15Z</time>
      </trkpt>
      <trkpt lat="44.93306" lon="3.939">
        <ele>835.04</ele>
        <time>2022-06-06T08:38:27Z</time>
      </trkpt>
      <trkpt lat="44.9331" lon="3.93898">
        <ele>834.56</ele>
        <time>2022-06-06T08:38:38Z</time>
      </trkpt>
      <trkpt lat="44.93317" lon="3.93898">
        <ele>832.64</ele>
        <time>2022-06-06T08:38:52Z</time>
      </trkpt>
      <trkpt lat="44.93317" lon="3.93895">
        <ele>829.76</ele>
        <time>2022-06-06T08:39:18Z</time>
      </trkpt>
      <trkpt lat="44.93321" lon="3.93886">
        <ele>830.24</ele>
        <time>2022-06-06T08:39:30Z</time>
      </trkpt>
      <trkpt lat="44.9333" lon="3.9388">
        <ele>833.12</ele>
        <time>2022-06-06T08:39:43Z</time>
      </trkpt>
      <trkpt lat="44.93338" lon="3.93879">
        <ele>836</ele>
        <time>2022-06-06T08:39:56Z</time>
      </trkpt>
      <trkpt lat="44.93339" lon="3.93878">
        <ele>836</ele>
        <time>2022-06-06T08:39:57Z</time>
      </trkpt>
      <trkpt lat="44.9334" lon="3.93878">
        <ele>836</ele>
        <time>2022-06-06T08:39:58Z</time>
      </trkpt>
      <trkpt lat="44.93347" lon="3.93875">
        <ele>836</ele>
        <time>2022-06-06T08:40:10Z</time>
      </trkpt>
      <trkpt lat="44.93353" lon="3.93876">
        <ele>836.96</ele>
        <time>2022-06-06T08:40:26Z</time>
      </trkpt>
      <trkpt lat="44.9336" lon="3.93886">
        <ele>838.89</ele>
        <time>2022-06-06T08:40:41Z</time>
      </trkpt>
      <trkpt lat="44.93362" lon="3.93888">
        <ele>844.66</ele>
        <time>2022-06-06T08:40:57Z</time>
      </trkpt>
      <trkpt lat="44.93364" lon="3.93891">
        <ele>847.54</ele>
        <time>2022-06-06T08:41:09Z</time>
      </trkpt>
      <trkpt lat="44.93363" lon="3.93892">
        <ele>847.54</ele>
        <time>2022-06-06T08:41:29Z</time>
      </trkpt>
      <trkpt lat="44.93363" lon="3.93889">
        <ele>847.54</ele>
        <time>2022-06-06T08:41:46Z</time>
      </trkpt>
      <trkpt lat="44.93368" lon="3.93899">
        <ele>846.58</ele>
        <time>2022-06-06T08:41:58Z</time>
      </trkpt>
      <trkpt lat="44.93375" lon="3.93891">
        <ele>849.46</ele>
        <time>2022-06-06T08:42:11Z</time>
      </trkpt>
      <trkpt lat="44.93376" lon="3.93888">
        <ele>849.94</ele>
        <time>2022-06-06T08:42:19Z</time>
      </trkpt>
      <trkpt lat="44.93377" lon="3.93887">
        <ele>850.42</ele>
        <time>2022-06-06T08:42:20Z</time>
      </trkpt>
      <trkpt lat="44.9338" lon="3.93888">
        <ele>850.42</ele>
        <time>2022-06-06T08:42:34Z</time>
      </trkpt>
      <trkpt lat="44.9338" lon="3.93887">
        <ele>850.42</ele>
        <time>2022-06-06T08:42:52Z</time>
      </trkpt>
      <trkpt lat="44.93379" lon="3.93887">
        <ele>850.42</ele>
        <time>2022-06-06T08:43:04Z</time>
      </trkpt>
      <trkpt lat="44.93378" lon="3.93886">
        <ele>850.9</ele>
        <time>2022-06-06T08:43:24Z</time>
      </trkpt>
      <trkpt lat="44.9338" lon="3.93883">
        <ele>850.42</ele>
        <time>2022-06-06T08:43:29Z</time>
      </trkpt>
      <trkpt lat="44.934" lon="3.93869">
        <ele>848.98</ele>
        <time>2022-06-06T08:43:46Z</time>
      </trkpt>
      <trkpt lat="44.93419" lon="3.9386">
        <ele>851.87</ele>
        <time>2022-06-06T08:44:00Z</time>
      </trkpt>
      <trkpt lat="44.93421" lon="3.93861">
        <ele>852.83</ele>
        <time>2022-06-06T08:44:01Z</time>
      </trkpt>
      <trkpt lat="44.9344" lon="3.93851">
        <ele>858.59</ele>
        <time>2022-06-06T08:44:18Z</time>
      </trkpt>
      <trkpt lat="44.93451" lon="3.93855">
        <ele>860.04</ele>
        <time>2022-06-06T08:44:27Z</time>
      </trkpt>
      <trkpt lat="44.93465" lon="3.93851">
        <ele>861</ele>
        <time>2022-06-06T08:44:39Z</time>
      </trkpt>
      <trkpt lat="44.93483" lon="3.93833">
        <ele>861.96</ele>
        <time>2022-06-06T08:44:56Z</time>
      </trkpt>
      <trkpt lat="44.93488" lon="3.93827">
        <ele>860.52</ele>
        <time>2022-06-06T08:45:12Z</time>
      </trkpt>
      <trkpt lat="44.93502" lon="3.93824">
        <ele>860.04</ele>
        <time>2022-06-06T08:45:31Z</time>
      </trkpt>
      <trkpt lat="44.93518" lon="3.93818">
        <ele>860.52</ele>
        <time>2022-06-06T08:45:47Z</time>
      </trkpt>
      <trkpt lat="44.93538" lon="3.93815">
        <ele>860.52</ele>
        <time>2022-06-06T08:46:02Z</time>
      </trkpt>
      <trkpt lat="44.93547" lon="3.93809">
        <ele>861.48</ele>
        <time>2022-06-06T08:46:10Z</time>
      </trkpt>
      <trkpt lat="44.93564" lon="3.93802">
        <ele>864.84</ele>
        <time>2022-06-06T08:46:24Z</time>
      </trkpt>
      <trkpt lat="44.93583" lon="3.93793">
        <ele>869.17</ele>
        <time>2022-06-06T08:46:39Z</time>
      </trkpt>
      <trkpt lat="44.93605" lon="3.93778">
        <ele>870.13</ele>
        <time>2022-06-06T08:46:58Z</time>
      </trkpt>
      <trkpt lat="44.93617" lon="3.93769">
        <ele>869.17</ele>
        <time>2022-06-06T08:47:13Z</time>
      </trkpt>
      <trkpt lat="44.93621" lon="3.93769">
        <ele>870.61</ele>
        <time>2022-06-06T08:47:30Z</time>
      </trkpt>
      <trkpt lat="44.93622" lon="3.9377">
        <ele>867.25</ele>
        <time>2022-06-06T08:47:54Z</time>
      </trkpt>
      <trkpt lat="44.93622" lon="3.93766">
        <ele>870.61</ele>
        <time>2022-06-06T08:48:18Z</time>
      </trkpt>
      <trkpt lat="44.9362" lon="3.93763">
        <ele>869.65</ele>
        <time>2022-06-06T08:48:46Z</time>
      </trkpt>
      <trkpt lat="44.93623" lon="3.93768">
        <ele>870.13</ele>
        <time>2022-06-06T08:49:17Z</time>
      </trkpt>
      <trkpt lat="44.93622" lon="3.93768">
        <ele>870.13</ele>
        <time>2022-06-06T08:49:40Z</time>
      </trkpt>
      <trkpt lat="44.93639" lon="3.93767">
        <ele>869.17</ele>
        <time>2022-06-06T08:49:55Z</time>
      </trkpt>
      <trkpt lat="44.93663" lon="3.93753">
        <ele>871.57</ele>
        <time>2022-06-06T08:50:13Z</time>
      </trkpt>
      <trkpt lat="44.93691" lon="3.93737">
        <ele>871.09</ele>
        <time>2022-06-06T08:50:29Z</time>
      </trkpt>
      <trkpt lat="44.93721" lon="3.93715">
        <ele>870.61</ele>
        <time>2022-06-06T08:50:48Z</time>
      </trkpt>
      <trkpt lat="44.93747" lon="3.93697">
        <ele>870.61</ele>
        <time>2022-06-06T08:51:06Z</time>
      </trkpt>
      <trkpt lat="44.93772" lon="3.93679">
        <ele>870.61</ele>
        <time>2022-06-06T08:51:24Z</time>
      </trkpt>
      <trkpt lat="44.93795" lon="3.93662">
        <ele>868.69</ele>
        <time>2022-06-06T08:51:43Z</time>
      </trkpt>
      <trkpt lat="44.93809" lon="3.93637">
        <ele>870.13</ele>
        <time>2022-06-06T08:51:58Z</time>
      </trkpt>
      <trkpt lat="44.9381" lon="3.93597">
        <ele>870.13</ele>
        <time>2022-06-06T08:52:17Z</time>
      </trkpt>
      <trkpt lat="44.938" lon="3.93571">
        <ele>869.17</ele>
        <time>2022-06-06T08:52:30Z</time>
      </trkpt>
      <trkpt lat="44.93787" lon="3.93543">
        <ele>868.21</ele>
        <time>2022-06-06T08:52:47Z</time>
      </trkpt>
      <trkpt lat="44.93787" lon="3.93516">
        <ele>867.25</ele>
        <time>2022-06-06T08:52:58Z</time>
      </trkpt>
      <trkpt lat="44.93788" lon="3.93514">
        <ele>867.25</ele>
        <time>2022-06-06T08:52:59Z</time>
      </trkpt>
      <trkpt lat="44.938" lon="3.93486">
        <ele>867.73</ele>
        <time>2022-06-06T08:53:14Z</time>
      </trkpt>
      <trkpt lat="44.93809" lon="3.93478">
        <ele>867.25</ele>
        <time>2022-06-06T08:53:29Z</time>
      </trkpt>
      <trkpt lat="44.93811" lon="3.93477">
        <ele>867.73</ele>
        <time>2022-06-06T08:53:50Z</time>
      </trkpt>
      <trkpt lat="44.93812" lon="3.93478">
        <ele>867.25</ele>
        <time>2022-06-06T08:54:03Z</time>
      </trkpt>
      <trkpt lat="44.93812" lon="3.93477">
        <ele>868.21</ele>
        <time>2022-06-06T08:54:15Z</time>
      </trkpt>
      <trkpt lat="44.93818" lon="3.93471">
        <ele>866.77</ele>
        <time>2022-06-06T08:54:29Z</time>
      </trkpt>
      <trkpt lat="44.9382" lon="3.9347">
        <ele>866.77</ele>
        <time>2022-06-06T08:54:45Z</time>
      </trkpt>
      <trkpt lat="44.93822" lon="3.93467">
        <ele>865.8</ele>
        <time>2022-06-06T08:55:01Z</time>
      </trkpt>
      <trkpt lat="44.93822" lon="3.9347">
        <ele>864.84</ele>
        <time>2022-06-06T08:55:16Z</time>
      </trkpt>
      <trkpt lat="44.93819" lon="3.93471">
        <ele>864.36</ele>
        <time>2022-06-06T08:55:19Z</time>
      </trkpt>
      <trkpt lat="44.93816" lon="3.9347">
        <ele>864.36</ele>
        <time>2022-06-06T08:55:34Z</time>
      </trkpt>
      <trkpt lat="44.93818" lon="3.93464">
        <ele>865.8</ele>
        <time>2022-06-06T08:55:55Z</time>
      </trkpt>
      <trkpt lat="44.93813" lon="3.9347">
        <ele>866.77</ele>
        <time>2022-06-06T08:56:06Z</time>
      </trkpt>
      <trkpt lat="44.9381" lon="3.9347">
        <ele>866.77</ele>
        <time>2022-06-06T08:56:08Z</time>
      </trkpt>
      <trkpt lat="44.93808" lon="3.93469">
        <ele>866.77</ele>
        <time>2022-06-06T08:56:10Z</time>
      </trkpt>
      <trkpt lat="44.93806" lon="3.93468">
        <ele>866.77</ele>
        <time>2022-06-06T08:56:11Z</time>
      </trkpt>
      <trkpt lat="44.93805" lon="3.93467">
        <ele>866.77</ele>
        <time>2022-06-06T08:56:12Z</time>
      </trkpt>
      <trkpt lat="44.93785" lon="3.93461">
        <ele>868.21</ele>
        <time>2022-06-06T08:56:28Z</time>
      </trkpt>
      <trkpt lat="44.93768" lon="3.9347">
        <ele>874.46</ele>
        <time>2022-06-06T08:56:47Z</time>
      </trkpt>
      <trkpt lat="44.93743" lon="3.93476">
        <ele>877.34</ele>
        <time>2022-06-06T08:57:04Z</time>
      </trkpt>
      <trkpt lat="44.93724" lon="3.93481">
        <ele>879.26</ele>
        <time>2022-06-06T08:57:23Z</time>
      </trkpt>
      <trkpt lat="44.93696" lon="3.93486">
        <ele>880.71</ele>
        <time>2022-06-06T08:57:44Z</time>
      </trkpt>
      <trkpt lat="44.93659" lon="3.93491">
        <ele>884.07</ele>
        <time>2022-06-06T08:58:01Z</time>
      </trkpt>
      <trkpt lat="44.93632" lon="3.93496">
        <ele>888.88</ele>
        <time>2022-06-06T08:58:20Z</time>
      </trkpt>
      <trkpt lat="44.93605" lon="3.93489">
        <ele>895.12</ele>
        <time>2022-06-06T08:58:38Z</time>
      </trkpt>
      <trkpt lat="44.93598" lon="3.93487">
        <ele>895.61</ele>
        <time>2022-06-06T08:58:40Z</time>
      </trkpt>
      <trkpt lat="44.93595" lon="3.93487">
        <ele>896.09</ele>
        <time>2022-06-06T08:58:41Z</time>
      </trkpt>
      <trkpt lat="44.93592" lon="3.93486">
        <ele>896.57</ele>
        <time>2022-06-06T08:58:42Z</time>
      </trkpt>
      <trkpt lat="44.93589" lon="3.93485">
        <ele>897.05</ele>
        <time>2022-06-06T08:58:43Z</time>
      </trkpt>
      <trkpt lat="44.93586" lon="3.93484">
        <ele>897.53</ele>
        <time>2022-06-06T08:58:44Z</time>
      </trkpt>
      <trkpt lat="44.93561" lon="3.93472">
        <ele>898.01</ele>
        <time>2022-06-06T08:58:58Z</time>
      </trkpt>
      <trkpt lat="44.93542" lon="3.93462">
        <ele>898.01</ele>
        <time>2022-06-06T08:59:14Z</time>
      </trkpt>
      <trkpt lat="44.93523" lon="3.93455">
        <ele>896.09</ele>
        <time>2022-06-06T08:59:30Z</time>
      </trkpt>
      <trkpt lat="44.93501" lon="3.93429">
        <ele>900.89</ele>
        <time>2022-06-06T08:59:45Z</time>
      </trkpt>
      <trkpt lat="44.9348" lon="3.93411">
        <ele>904.26</ele>
        <time>2022-06-06T08:59:58Z</time>
      </trkpt>
      <trkpt lat="44.93463" lon="3.93398">
        <ele>905.22</ele>
        <time>2022-06-06T09:00:10Z</time>
      </trkpt>
      <trkpt lat="44.93436" lon="3.93378">
        <ele>905.22</ele>
        <time>2022-06-06T09:00:24Z</time>
      </trkpt>
      <trkpt lat="44.93409" lon="3.9336">
        <ele>905.7</ele>
        <time>2022-06-06T09:00:39Z</time>
      </trkpt>
      <trkpt lat="44.93384" lon="3.93351">
        <ele>905.22</ele>
        <time>2022-06-06T09:00:54Z</time>
      </trkpt>
      <trkpt lat="44.93363" lon="3.93354">
        <ele>906.66</ele>
        <time>2022-06-06T09:01:08Z</time>
      </trkpt>
      <trkpt lat="44.93348" lon="3.93367">
        <ele>915.31</ele>
        <time>2022-06-06T09:01:24Z</time>
      </trkpt>
      <trkpt lat="44.93331" lon="3.93382">
        <ele>918.2</ele>
        <time>2022-06-06T09:01:39Z</time>
      </trkpt>
      <trkpt lat="44.93301" lon="3.93395">
        <ele>926.37</ele>
        <time>2022-06-06T09:01:56Z</time>
      </trkpt>
      <trkpt lat="44.93274" lon="3.93395">
        <ele>928.29</ele>
        <time>2022-06-06T09:02:09Z</time>
      </trkpt>
      <trkpt lat="44.93248" lon="3.93398">
        <ele>927.33</ele>
        <time>2022-06-06T09:02:25Z</time>
      </trkpt>
      <trkpt lat="44.93222" lon="3.93397">
        <ele>927.81</ele>
        <time>2022-06-06T09:02:42Z</time>
      </trkpt>
      <trkpt lat="44.93196" lon="3.934">
        <ele>925.89</ele>
        <time>2022-06-06T09:02:59Z</time>
      </trkpt>
      <trkpt lat="44.93166" lon="3.934">
        <ele>923</ele>
        <time>2022-06-06T09:03:20Z</time>
      </trkpt>
      <trkpt lat="44.93147" lon="3.93407">
        <ele>922.04</ele>
        <time>2022-06-06T09:03:32Z</time>
      </trkpt>
      <trkpt lat="44.93125" lon="3.93411">
        <ele>923.48</ele>
        <time>2022-06-06T09:03:46Z</time>
      </trkpt>
      <trkpt lat="44.93098" lon="3.93414">
        <ele>924.45</ele>
        <time>2022-06-06T09:04:00Z</time>
      </trkpt>
      <trkpt lat="44.93071" lon="3.93413">
        <ele>924.93</ele>
        <time>2022-06-06T09:04:15Z</time>
      </trkpt>
      <trkpt lat="44.93043" lon="3.93416">
        <ele>923.96</ele>
        <time>2022-06-06T09:04:32Z</time>
      </trkpt>
      <trkpt lat="44.93015" lon="3.93418">
        <ele>923</ele>
        <time>2022-06-06T09:04:46Z</time>
      </trkpt>
      <trkpt lat="44.92988" lon="3.93422">
        <ele>923</ele>
        <time>2022-06-06T09:05:02Z</time>
      </trkpt>
      <trkpt lat="44.92967" lon="3.93425">
        <ele>923.96</ele>
        <time>2022-06-06T09:05:16Z</time>
      </trkpt>
      <trkpt lat="44.9294" lon="3.93427">
        <ele>924.93</ele>
        <time>2022-06-06T09:05:31Z</time>
      </trkpt>
      <trkpt lat="44.92919" lon="3.93429">
        <ele>925.89</ele>
        <time>2022-06-06T09:05:45Z</time>
      </trkpt>
      <trkpt lat="44.92902" lon="3.93437">
        <ele>927.33</ele>
        <time>2022-06-06T09:05:56Z</time>
      </trkpt>
      <trkpt lat="44.92875" lon="3.93455">
        <ele>928.29</ele>
        <time>2022-06-06T09:06:15Z</time>
      </trkpt>
      <trkpt lat="44.92852" lon="3.93469">
        <ele>929.25</ele>
        <time>2022-06-06T09:06:30Z</time>
      </trkpt>
      <trkpt lat="44.92827" lon="3.93476">
        <ele>928.77</ele>
        <time>2022-06-06T09:06:45Z</time>
      </trkpt>
      <trkpt lat="44.92804" lon="3.93479">
        <ele>927.81</ele>
        <time>2022-06-06T09:06:59Z</time>
      </trkpt>
      <trkpt lat="44.92781" lon="3.93485">
        <ele>927.33</ele>
        <time>2022-06-06T09:07:12Z</time>
      </trkpt>
      <trkpt lat="44.9276" lon="3.9349">
        <ele>926.85</ele>
        <time>2022-06-06T09:07:25Z</time>
      </trkpt>
      <trkpt lat="44.92733" lon="3.93495">
        <ele>926.37</ele>
        <time>2022-06-06T09:07:42Z</time>
      </trkpt>
      <trkpt lat="44.92705" lon="3.93501">
        <ele>927.33</ele>
        <time>2022-06-06T09:07:59Z</time>
      </trkpt>
      <trkpt lat="44.92684" lon="3.93508">
        <ele>927.33</ele>
        <time>2022-06-06T09:08:12Z</time>
      </trkpt>
      <trkpt lat="44.92662" lon="3.93514">
        <ele>926.85</ele>
        <time>2022-06-06T09:08:26Z</time>
      </trkpt>
      <trkpt lat="44.92648" lon="3.93512">
        <ele>927.33</ele>
        <time>2022-06-06T09:08:34Z</time>
      </trkpt>
      <trkpt lat="44.92648" lon="3.9351">
        <ele>927.33</ele>
        <time>2022-06-06T09:08:35Z</time>
      </trkpt>
      <trkpt lat="44.9265" lon="3.93507">
        <ele>927.33</ele>
        <time>2022-06-06T09:08:37Z</time>
      </trkpt>
      <trkpt lat="44.92651" lon="3.93506">
        <ele>927.33</ele>
        <time>2022-06-06T09:08:38Z</time>
      </trkpt>
      <trkpt lat="44.92667" lon="3.93492">
        <ele>927.33</ele>
        <time>2022-06-06T09:08:51Z</time>
      </trkpt>
      <trkpt lat="44.9269" lon="3.93465">
        <ele>925.89</ele>
        <time>2022-06-06T09:09:08Z</time>
      </trkpt>
      <trkpt lat="44.92709" lon="3.93448">
        <ele>925.41</ele>
        <time>2022-06-06T09:09:25Z</time>
      </trkpt>
      <trkpt lat="44.92729" lon="3.93426">
        <ele>923.96</ele>
        <time>2022-06-06T09:09:42Z</time>
      </trkpt>
      <trkpt lat="44.92746" lon="3.93405">
        <ele>923</ele>
        <time>2022-06-06T09:09:59Z</time>
      </trkpt>
      <trkpt lat="44.92761" lon="3.9338">
        <ele>919.16</ele>
        <time>2022-06-06T09:10:14Z</time>
      </trkpt>
      <trkpt lat="44.92779" lon="3.93349">
        <ele>917.24</ele>
        <time>2022-06-06T09:10:33Z</time>
      </trkpt>
      <trkpt lat="44.92793" lon="3.93322">
        <ele>916.75</ele>
        <time>2022-06-06T09:10:50Z</time>
      </trkpt>
      <trkpt lat="44.92811" lon="3.93298">
        <ele>916.27</ele>
        <time>2022-06-06T09:11:08Z</time>
      </trkpt>
      <trkpt lat="44.92827" lon="3.93274">
        <ele>916.27</ele>
        <time>2022-06-06T09:11:25Z</time>
      </trkpt>
      <trkpt lat="44.92847" lon="3.93249">
        <ele>914.35</ele>
        <time>2022-06-06T09:11:44Z</time>
      </trkpt>
      <trkpt lat="44.92867" lon="3.93222">
        <ele>910.99</ele>
        <time>2022-06-06T09:11:59Z</time>
      </trkpt>
      <trkpt lat="44.92888" lon="3.93193">
        <ele>910.03</ele>
        <time>2022-06-06T09:12:17Z</time>
      </trkpt>
      <trkpt lat="44.92906" lon="3.93166">
        <ele>909.06</ele>
        <time>2022-06-06T09:12:32Z</time>
      </trkpt>
      <trkpt lat="44.92921" lon="3.93143">
        <ele>907.62</ele>
        <time>2022-06-06T09:12:48Z</time>
      </trkpt>
      <trkpt lat="44.92938" lon="3.93116">
        <ele>905.7</ele>
        <time>2022-06-06T09:13:03Z</time>
      </trkpt>
      <trkpt lat="44.92947" lon="3.9309">
        <ele>904.74</ele>
        <time>2022-06-06T09:13:19Z</time>
      </trkpt>
      <trkpt lat="44.92943" lon="3.9309">
        <ele>903.78</ele>
        <time>2022-06-06T09:13:24Z</time>
      </trkpt>
      <trkpt lat="44.92942" lon="3.93091">
        <ele>903.78</ele>
        <time>2022-06-06T09:13:26Z</time>
      </trkpt>
      <trkpt lat="44.92929" lon="3.93104">
        <ele>902.82</ele>
        <time>2022-06-06T09:13:39Z</time>
      </trkpt>
      <trkpt lat="44.92909" lon="3.93118">
        <ele>899.45</ele>
        <time>2022-06-06T09:13:59Z</time>
      </trkpt>
      <trkpt lat="44.92892" lon="3.93128">
        <ele>894.64</ele>
        <time>2022-06-06T09:14:16Z</time>
      </trkpt>
      <trkpt lat="44.92871" lon="3.93138">
        <ele>890.8</ele>
        <time>2022-06-06T09:14:28Z</time>
      </trkpt>
      <trkpt lat="44.92859" lon="3.93144">
        <ele>885.99</ele>
        <time>2022-06-06T09:14:38Z</time>
      </trkpt>
      <trkpt lat="44.92858" lon="3.93144">
        <ele>885.51</ele>
        <time>2022-06-06T09:14:39Z</time>
      </trkpt>
      <trkpt lat="44.92856" lon="3.93145">
        <ele>885.03</ele>
        <time>2022-06-06T09:14:40Z</time>
      </trkpt>
      <trkpt lat="44.92823" lon="3.93153">
        <ele>875.42</ele>
        <time>2022-06-06T09:14:59Z</time>
      </trkpt>
      <trkpt lat="44.92803" lon="3.93147">
        <ele>873.98</ele>
        <time>2022-06-06T09:15:06Z</time>
      </trkpt>
      <trkpt lat="44.92801" lon="3.93144">
        <ele>873.98</ele>
        <time>2022-06-06T09:15:07Z</time>
      </trkpt>
      <trkpt lat="44.92805" lon="3.93115">
        <ele>874.94</ele>
        <time>2022-06-06T09:15:16Z</time>
      </trkpt>
      <trkpt lat="44.9282" lon="3.9308">
        <ele>876.38</ele>
        <time>2022-06-06T09:15:34Z</time>
      </trkpt>
      <trkpt lat="44.92833" lon="3.93043">
        <ele>875.9</ele>
        <time>2022-06-06T09:15:48Z</time>
      </trkpt>
      <trkpt lat="44.92846" lon="3.93013">
        <ele>878.78</ele>
        <time>2022-06-06T09:16:03Z</time>
      </trkpt>
      <trkpt lat="44.92862" lon="3.92985">
        <ele>884.55</ele>
        <time>2022-06-06T09:16:16Z</time>
      </trkpt>
      <trkpt lat="44.92871" lon="3.92948">
        <ele>885.99</ele>
        <time>2022-06-06T09:16:30Z</time>
      </trkpt>
      <trkpt lat="44.92867" lon="3.92911">
        <ele>892.72</ele>
        <time>2022-06-06T09:16:45Z</time>
      </trkpt>
      <trkpt lat="44.92857" lon="3.92878">
        <ele>898.49</ele>
        <time>2022-06-06T09:17:00Z</time>
      </trkpt>
      <trkpt lat="44.92847" lon="3.92841">
        <ele>901.85</ele>
        <time>2022-06-06T09:17:18Z</time>
      </trkpt>
      <trkpt lat="44.92834" lon="3.92815">
        <ele>903.3</ele>
        <time>2022-06-06T09:17:34Z</time>
      </trkpt>
      <trkpt lat="44.92813" lon="3.92798">
        <ele>903.3</ele>
        <time>2022-06-06T09:17:49Z</time>
      </trkpt>
      <trkpt lat="44.92799" lon="3.92768">
        <ele>902.82</ele>
        <time>2022-06-06T09:18:05Z</time>
      </trkpt>
      <trkpt lat="44.92799" lon="3.92736">
        <ele>902.82</ele>
        <time>2022-06-06T09:18:18Z</time>
      </trkpt>
      <trkpt lat="44.92794" lon="3.9271">
        <ele>905.22</ele>
        <time>2022-06-06T09:18:33Z</time>
      </trkpt>
      <trkpt lat="44.92787" lon="3.92663">
        <ele>907.62</ele>
        <time>2022-06-06T09:18:52Z</time>
      </trkpt>
      <trkpt lat="44.92781" lon="3.9265">
        <ele>908.58</ele>
        <time>2022-06-06T09:18:59Z</time>
      </trkpt>
      <trkpt lat="44.92763" lon="3.92618">
        <ele>911.47</ele>
        <time>2022-06-06T09:19:17Z</time>
      </trkpt>
      <trkpt lat="44.92753" lon="3.92588">
        <ele>911.95</ele>
        <time>2022-06-06T09:19:33Z</time>
      </trkpt>
      <trkpt lat="44.92753" lon="3.92553">
        <ele>912.91</ele>
        <time>2022-06-06T09:19:48Z</time>
      </trkpt>
      <trkpt lat="44.92753" lon="3.92519">
        <ele>914.35</ele>
        <time>2022-06-06T09:20:03Z</time>
      </trkpt>
      <trkpt lat="44.9275" lon="3.92486">
        <ele>914.35</ele>
        <time>2022-06-06T09:20:19Z</time>
      </trkpt>
      <trkpt lat="44.92752" lon="3.92457">
        <ele>916.75</ele>
        <time>2022-06-06T09:20:35Z</time>
      </trkpt>
      <trkpt lat="44.92743" lon="3.92433">
        <ele>916.75</ele>
        <time>2022-06-06T09:20:50Z</time>
      </trkpt>
      <trkpt lat="44.92724" lon="3.9242">
        <ele>914.83</ele>
        <time>2022-06-06T09:21:07Z</time>
      </trkpt>
      <trkpt lat="44.92713" lon="3.92403">
        <ele>912.43</ele>
        <time>2022-06-06T09:21:22Z</time>
      </trkpt>
      <trkpt lat="44.927" lon="3.92386">
        <ele>909.06</ele>
        <time>2022-06-06T09:21:39Z</time>
      </trkpt>
      <trkpt lat="44.92684" lon="3.92366">
        <ele>905.7</ele>
        <time>2022-06-06T09:21:57Z</time>
      </trkpt>
      <trkpt lat="44.92685" lon="3.92348">
        <ele>903.3</ele>
        <time>2022-06-06T09:22:11Z</time>
      </trkpt>
      <trkpt lat="44.92686" lon="3.92346">
        <ele>902.33</ele>
        <time>2022-06-06T09:22:27Z</time>
      </trkpt>
      <trkpt lat="44.92686" lon="3.92346">
        <ele>903.3</ele>
        <time>2022-06-06T09:22:51Z</time>
      </trkpt>
      <trkpt lat="44.92689" lon="3.92345">
        <ele>905.22</ele>
        <time>2022-06-06T09:23:15Z</time>
      </trkpt>
      <trkpt lat="44.92697" lon="3.92349">
        <ele>905.22</ele>
        <time>2022-06-06T09:23:29Z</time>
      </trkpt>
      <trkpt lat="44.92698" lon="3.92349">
        <ele>905.22</ele>
        <time>2022-06-06T09:23:30Z</time>
      </trkpt>
      <trkpt lat="44.92715" lon="3.92345">
        <ele>904.74</ele>
        <time>2022-06-06T09:23:48Z</time>
      </trkpt>
      <trkpt lat="44.92713" lon="3.92347">
        <ele>905.22</ele>
        <time>2022-06-06T09:24:13Z</time>
      </trkpt>
      <trkpt lat="44.92713" lon="3.92348">
        <ele>904.74</ele>
        <time>2022-06-06T09:24:38Z</time>
      </trkpt>
      <trkpt lat="44.92712" lon="3.92347">
        <ele>902.82</ele>
        <time>2022-06-06T09:25:03Z</time>
      </trkpt>
      <trkpt lat="44.92714" lon="3.92349">
        <ele>903.78</ele>
        <time>2022-06-06T09:25:31Z</time>
      </trkpt>
      <trkpt lat="44.92715" lon="3.92352">
        <ele>905.7</ele>
        <time>2022-06-06T09:26:05Z</time>
      </trkpt>
      <trkpt lat="44.92709" lon="3.92355">
        <ele>903.78</ele>
        <time>2022-06-06T09:26:21Z</time>
      </trkpt>
      <trkpt lat="44.92704" lon="3.92354">
        <ele>903.3</ele>
        <time>2022-06-06T09:26:26Z</time>
      </trkpt>
      <trkpt lat="44.92692" lon="3.92344">
        <ele>902.82</ele>
        <time>2022-06-06T09:26:41Z</time>
      </trkpt>
      <trkpt lat="44.92692" lon="3.92342">
        <ele>903.3</ele>
        <time>2022-06-06T09:27:01Z</time>
      </trkpt>
      <trkpt lat="44.92695" lon="3.9234">
        <ele>904.74</ele>
        <time>2022-06-06T09:27:34Z</time>
      </trkpt>
      <trkpt lat="44.92691" lon="3.92344">
        <ele>904.74</ele>
        <time>2022-06-06T09:27:52Z</time>
      </trkpt>
      <trkpt lat="44.92691" lon="3.92343">
        <ele>903.78</ele>
        <time>2022-06-06T09:28:20Z</time>
      </trkpt>
      <trkpt lat="44.92688" lon="3.92345">
        <ele>903.3</ele>
        <time>2022-06-06T09:28:37Z</time>
      </trkpt>
      <trkpt lat="44.92682" lon="3.92368">
        <ele>906.18</ele>
        <time>2022-06-06T09:28:52Z</time>
      </trkpt>
      <trkpt lat="44.92697" lon="3.9238">
        <ele>909.54</ele>
        <time>2022-06-06T09:29:08Z</time>
      </trkpt>
      <trkpt lat="44.92711" lon="3.92405">
        <ele>912.91</ele>
        <time>2022-06-06T09:29:26Z</time>
      </trkpt>
      <trkpt lat="44.92711" lon="3.92414">
        <ele>912.43</ele>
        <time>2022-06-06T09:29:33Z</time>
      </trkpt>
      <trkpt lat="44.9271" lon="3.92414">
        <ele>912.43</ele>
        <time>2022-06-06T09:29:34Z</time>
      </trkpt>
      <trkpt lat="44.92708" lon="3.92413">
        <ele>912.43</ele>
        <time>2022-06-06T09:29:35Z</time>
      </trkpt>
      <trkpt lat="44.92707" lon="3.92413">
        <ele>912.91</ele>
        <time>2022-06-06T09:29:36Z</time>
      </trkpt>
      <trkpt lat="44.92706" lon="3.92413">
        <ele>912.91</ele>
        <time>2022-06-06T09:29:37Z</time>
      </trkpt>
      <trkpt lat="44.92705" lon="3.92412">
        <ele>913.39</ele>
        <time>2022-06-06T09:29:38Z</time>
      </trkpt>
      <trkpt lat="44.92703" lon="3.92412">
        <ele>913.39</ele>
        <time>2022-06-06T09:29:39Z</time>
      </trkpt>
      <trkpt lat="44.92673" lon="3.92412">
        <ele>912.91</ele>
        <time>2022-06-06T09:29:56Z</time>
      </trkpt>
      <trkpt lat="44.92646" lon="3.92411">
        <ele>914.35</ele>
        <time>2022-06-06T09:30:12Z</time>
      </trkpt>
      <trkpt lat="44.92625" lon="3.92413">
        <ele>916.75</ele>
        <time>2022-06-06T09:30:28Z</time>
      </trkpt>
      <trkpt lat="44.92606" lon="3.92414">
        <ele>919.16</ele>
        <time>2022-06-06T09:30:39Z</time>
      </trkpt>
      <trkpt lat="44.9259" lon="3.92412">
        <ele>923</ele>
        <time>2022-06-06T09:30:53Z</time>
      </trkpt>
      <trkpt lat="44.92588" lon="3.92414">
        <ele>923</ele>
        <time>2022-06-06T09:30:54Z</time>
      </trkpt>
      <trkpt lat="44.92586" lon="3.92415">
        <ele>923</ele>
        <time>2022-06-06T09:30:55Z</time>
      </trkpt>
      <trkpt lat="44.92584" lon="3.92416">
        <ele>923</ele>
        <time>2022-06-06T09:30:56Z</time>
      </trkpt>
      <trkpt lat="44.92582" lon="3.92417">
        <ele>923</ele>
        <time>2022-06-06T09:30:57Z</time>
      </trkpt>
      <trkpt lat="44.92563" lon="3.92429">
        <ele>922.52</ele>
        <time>2022-06-06T09:31:12Z</time>
      </trkpt>
      <trkpt lat="44.92537" lon="3.92438">
        <ele>923.48</ele>
        <time>2022-06-06T09:31:25Z</time>
      </trkpt>
      <trkpt lat="44.92512" lon="3.92437">
        <ele>924.45</ele>
        <time>2022-06-06T09:31:40Z</time>
      </trkpt>
      <trkpt lat="44.92492" lon="3.92414">
        <ele>923.96</ele>
        <time>2022-06-06T09:31:59Z</time>
      </trkpt>
      <trkpt lat="44.92477" lon="3.92398">
        <ele>923.48</ele>
        <time>2022-06-06T09:32:17Z</time>
      </trkpt>
      <trkpt lat="44.92474" lon="3.92393">
        <ele>923</ele>
        <time>2022-06-06T09:32:36Z</time>
      </trkpt>
      <trkpt lat="44.92472" lon="3.9239">
        <ele>922.52</ele>
        <time>2022-06-06T09:32:51Z</time>
      </trkpt>
      <trkpt lat="44.92472" lon="3.92389">
        <ele>923.48</ele>
        <time>2022-06-06T09:33:09Z</time>
      </trkpt>
      <trkpt lat="44.92472" lon="3.92389">
        <ele>922.52</ele>
        <time>2022-06-06T09:33:21Z</time>
      </trkpt>
      <trkpt lat="44.9247" lon="3.92389">
        <ele>922.04</ele>
        <time>2022-06-06T09:33:24Z</time>
      </trkpt>
      <trkpt lat="44.92467" lon="3.92389">
        <ele>922.04</ele>
        <time>2022-06-06T09:33:26Z</time>
      </trkpt>
      <trkpt lat="44.9245" lon="3.92394">
        <ele>922.04</ele>
        <time>2022-06-06T09:33:40Z</time>
      </trkpt>
      <trkpt lat="44.92427" lon="3.92401">
        <ele>923.48</ele>
        <time>2022-06-06T09:33:57Z</time>
      </trkpt>
      <trkpt lat="44.92404" lon="3.92405">
        <ele>925.41</ele>
        <time>2022-06-06T09:34:15Z</time>
      </trkpt>
      <trkpt lat="44.92376" lon="3.9241">
        <ele>926.37</ele>
        <time>2022-06-06T09:34:29Z</time>
      </trkpt>
      <trkpt lat="44.9235" lon="3.92418">
        <ele>926.37</ele>
        <time>2022-06-06T09:34:44Z</time>
      </trkpt>
      <trkpt lat="44.9233" lon="3.92428">
        <ele>925.89</ele>
        <time>2022-06-06T09:35:00Z</time>
      </trkpt>
      <trkpt lat="44.92303" lon="3.92436">
        <ele>926.85</ele>
        <time>2022-06-06T09:35:16Z</time>
      </trkpt>
      <trkpt lat="44.92273" lon="3.92442">
        <ele>928.29</ele>
        <time>2022-06-06T09:35:35Z</time>
      </trkpt>
      <trkpt lat="44.92248" lon="3.92448">
        <ele>930.21</ele>
        <time>2022-06-06T09:35:52Z</time>
      </trkpt>
      <trkpt lat="44.92227" lon="3.92453">
        <ele>933.1</ele>
        <time>2022-06-06T09:36:06Z</time>
      </trkpt>
      <trkpt lat="44.92202" lon="3.92456">
        <ele>935.5</ele>
        <time>2022-06-06T09:36:24Z</time>
      </trkpt>
      <trkpt lat="44.92186" lon="3.92468">
        <ele>937.9</ele>
        <time>2022-06-06T09:36:39Z</time>
      </trkpt>
      <trkpt lat="44.92163" lon="3.92485">
        <ele>944.15</ele>
        <time>2022-06-06T09:37:00Z</time>
      </trkpt>
      <trkpt lat="44.92129" lon="3.92504">
        <ele>943.67</ele>
        <time>2022-06-06T09:37:16Z</time>
      </trkpt>
      <trkpt lat="44.92104" lon="3.92519">
        <ele>945.59</ele>
        <time>2022-06-06T09:37:33Z</time>
      </trkpt>
      <trkpt lat="44.92079" lon="3.92536">
        <ele>947.04</ele>
        <time>2022-06-06T09:37:47Z</time>
      </trkpt>
      <trkpt lat="44.9206" lon="3.92548">
        <ele>950.4</ele>
        <time>2022-06-06T09:37:59Z</time>
      </trkpt>
      <trkpt lat="44.92038" lon="3.92569">
        <ele>951.84</ele>
        <time>2022-06-06T09:38:15Z</time>
      </trkpt>
      <trkpt lat="44.92015" lon="3.92588">
        <ele>952.8</ele>
        <time>2022-06-06T09:38:29Z</time>
      </trkpt>
      <trkpt lat="44.91991" lon="3.92605">
        <ele>952.32</ele>
        <time>2022-06-06T09:38:46Z</time>
      </trkpt>
      <trkpt lat="44.91966" lon="3.92628">
        <ele>953.28</ele>
        <time>2022-06-06T09:39:01Z</time>
      </trkpt>
      <trkpt lat="44.9195" lon="3.92648">
        <ele>954.25</ele>
        <time>2022-06-06T09:39:16Z</time>
      </trkpt>
      <trkpt lat="44.91933" lon="3.92669">
        <ele>955.69</ele>
        <time>2022-06-06T09:39:29Z</time>
      </trkpt>
      <trkpt lat="44.91916" lon="3.92687">
        <ele>955.21</ele>
        <time>2022-06-06T09:39:41Z</time>
      </trkpt>
      <trkpt lat="44.91892" lon="3.92706">
        <ele>954.25</ele>
        <time>2022-06-06T09:39:58Z</time>
      </trkpt>
      <trkpt lat="44.9187" lon="3.92721">
        <ele>958.09</ele>
        <time>2022-06-06T09:40:14Z</time>
      </trkpt>
      <trkpt lat="44.91841" lon="3.92734">
        <ele>959.05</ele>
        <time>2022-06-06T09:40:30Z</time>
      </trkpt>
      <trkpt lat="44.91816" lon="3.92742">
        <ele>957.13</ele>
        <time>2022-06-06T09:40:44Z</time>
      </trkpt>
      <trkpt lat="44.91775" lon="3.92754">
        <ele>955.69</ele>
        <time>2022-06-06T09:41:01Z</time>
      </trkpt>
      <trkpt lat="44.91737" lon="3.92764">
        <ele>953.77</ele>
        <time>2022-06-06T09:41:15Z</time>
      </trkpt>
      <trkpt lat="44.91713" lon="3.92771">
        <ele>952.8</ele>
        <time>2022-06-06T09:41:29Z</time>
      </trkpt>
      <trkpt lat="44.91703" lon="3.92772">
        <ele>951.84</ele>
        <time>2022-06-06T09:41:43Z</time>
      </trkpt>
      <trkpt lat="44.91666" lon="3.92785">
        <ele>951.36</ele>
        <time>2022-06-06T09:41:59Z</time>
      </trkpt>
      <trkpt lat="44.91607" lon="3.92808">
        <ele>949.44</ele>
        <time>2022-06-06T09:42:14Z</time>
      </trkpt>
      <trkpt lat="44.91533" lon="3.92818">
        <ele>948</ele>
        <time>2022-06-06T09:42:29Z</time>
      </trkpt>
      <trkpt lat="44.91443" lon="3.92828">
        <ele>947.04</ele>
        <time>2022-06-06T09:42:48Z</time>
      </trkpt>
      <trkpt lat="44.91378" lon="3.92821">
        <ele>947.04</ele>
        <time>2022-06-06T09:43:01Z</time>
      </trkpt>
      <trkpt lat="44.91331" lon="3.92833">
        <ele>947.52</ele>
        <time>2022-06-06T09:43:14Z</time>
      </trkpt>
      <trkpt lat="44.91294" lon="3.92851">
        <ele>946.56</ele>
        <time>2022-06-06T09:43:29Z</time>
      </trkpt>
      <trkpt lat="44.91267" lon="3.92868">
        <ele>948</ele>
        <time>2022-06-06T09:43:45Z</time>
      </trkpt>
      <trkpt lat="44.91236" lon="3.92895">
        <ele>949.92</ele>
        <time>2022-06-06T09:44:04Z</time>
      </trkpt>
      <trkpt lat="44.91204" lon="3.92922">
        <ele>951.84</ele>
        <time>2022-06-06T09:44:23Z</time>
      </trkpt>
      <trkpt lat="44.91174" lon="3.92949">
        <ele>954.25</ele>
        <time>2022-06-06T09:44:42Z</time>
      </trkpt>
      <trkpt lat="44.91148" lon="3.92968">
        <ele>957.13</ele>
        <time>2022-06-06T09:45:00Z</time>
      </trkpt>
      <trkpt lat="44.91125" lon="3.92984">
        <ele>958.57</ele>
        <time>2022-06-06T09:45:15Z</time>
      </trkpt>
      <trkpt lat="44.91095" lon="3.93005">
        <ele>960.98</ele>
        <time>2022-06-06T09:45:36Z</time>
      </trkpt>
      <trkpt lat="44.91073" lon="3.93016">
        <ele>961.46</ele>
        <time>2022-06-06T09:45:50Z</time>
      </trkpt>
      <trkpt lat="44.91045" lon="3.93032">
        <ele>961.46</ele>
        <time>2022-06-06T09:46:07Z</time>
      </trkpt>
      <trkpt lat="44.91025" lon="3.93044">
        <ele>962.9</ele>
        <time>2022-06-06T09:46:21Z</time>
      </trkpt>
      <trkpt lat="44.91003" lon="3.9306">
        <ele>964.82</ele>
        <time>2022-06-06T09:46:36Z</time>
      </trkpt>
      <trkpt lat="44.90979" lon="3.93075">
        <ele>966.74</ele>
        <time>2022-06-06T09:46:53Z</time>
      </trkpt>
      <trkpt lat="44.90955" lon="3.9309">
        <ele>968.18</ele>
        <time>2022-06-06T09:47:09Z</time>
      </trkpt>
      <trkpt lat="44.9093" lon="3.93105">
        <ele>970.59</ele>
        <time>2022-06-06T09:47:24Z</time>
      </trkpt>
      <trkpt lat="44.90905" lon="3.93119">
        <ele>973.95</ele>
        <time>2022-06-06T09:47:40Z</time>
      </trkpt>
      <trkpt lat="44.90884" lon="3.9313">
        <ele>976.36</ele>
        <time>2022-06-06T09:47:57Z</time>
      </trkpt>
      <trkpt lat="44.90864" lon="3.93141">
        <ele>978.76</ele>
        <time>2022-06-06T09:48:09Z</time>
      </trkpt>
      <trkpt lat="44.90856" lon="3.93145">
        <ele>981.64</ele>
        <time>2022-06-06T09:48:27Z</time>
      </trkpt>
      <trkpt lat="44.90846" lon="3.93151">
        <ele>983.09</ele>
        <time>2022-06-06T09:48:43Z</time>
      </trkpt>
      <trkpt lat="44.90827" lon="3.93162">
        <ele>985.01</ele>
        <time>2022-06-06T09:48:59Z</time>
      </trkpt>
      <trkpt lat="44.90803" lon="3.93175">
        <ele>985.49</ele>
        <time>2022-06-06T09:49:13Z</time>
      </trkpt>
      <trkpt lat="44.90779" lon="3.93183">
        <ele>987.41</ele>
        <time>2022-06-06T09:49:27Z</time>
      </trkpt>
      <trkpt lat="44.90757" lon="3.93194">
        <ele>990.3</ele>
        <time>2022-06-06T09:49:41Z</time>
      </trkpt>
      <trkpt lat="44.90728" lon="3.93197">
        <ele>990.78</ele>
        <time>2022-06-06T09:49:56Z</time>
      </trkpt>
      <trkpt lat="44.90704" lon="3.93201">
        <ele>991.26</ele>
        <time>2022-06-06T09:50:11Z</time>
      </trkpt>
      <trkpt lat="44.90673" lon="3.93212">
        <ele>988.37</ele>
        <time>2022-06-06T09:50:28Z</time>
      </trkpt>
      <trkpt lat="44.90648" lon="3.93227">
        <ele>987.41</ele>
        <time>2022-06-06T09:50:42Z</time>
      </trkpt>
      <trkpt lat="44.90622" lon="3.93243">
        <ele>989.33</ele>
        <time>2022-06-06T09:50:59Z</time>
      </trkpt>
      <trkpt lat="44.90598" lon="3.93259">
        <ele>990.3</ele>
        <time>2022-06-06T09:51:17Z</time>
      </trkpt>
      <trkpt lat="44.90575" lon="3.93275">
        <ele>991.26</ele>
        <time>2022-06-06T09:51:30Z</time>
      </trkpt>
      <trkpt lat="44.90554" lon="3.93288">
        <ele>992.22</ele>
        <time>2022-06-06T09:51:48Z</time>
      </trkpt>
      <trkpt lat="44.90542" lon="3.93293">
        <ele>991.26</ele>
        <time>2022-06-06T09:52:05Z</time>
      </trkpt>
      <trkpt lat="44.90522" lon="3.93305">
        <ele>989.81</ele>
        <time>2022-06-06T09:52:26Z</time>
      </trkpt>
      <trkpt lat="44.90498" lon="3.93317">
        <ele>987.89</ele>
        <time>2022-06-06T09:52:39Z</time>
      </trkpt>
      <trkpt lat="44.9048" lon="3.93315">
        <ele>990.78</ele>
        <time>2022-06-06T09:52:54Z</time>
      </trkpt>
      <trkpt lat="44.90479" lon="3.93306">
        <ele>991.74</ele>
        <time>2022-06-06T09:53:08Z</time>
      </trkpt>
      <trkpt lat="44.90482" lon="3.93307">
        <ele>992.22</ele>
        <time>2022-06-06T09:53:37Z</time>
      </trkpt>
      <trkpt lat="44.90484" lon="3.93306">
        <ele>990.3</ele>
        <time>2022-06-06T09:54:06Z</time>
      </trkpt>
      <trkpt lat="44.90484" lon="3.93312">
        <ele>989.81</ele>
        <time>2022-06-06T09:54:29Z</time>
      </trkpt>
      <trkpt lat="44.90487" lon="3.93318">
        <ele>989.81</ele>
        <time>2022-06-06T09:54:35Z</time>
      </trkpt>
      <trkpt lat="44.90474" lon="3.93333">
        <ele>992.22</ele>
        <time>2022-06-06T09:54:50Z</time>
      </trkpt>
      <trkpt lat="44.90462" lon="3.93329">
        <ele>995.1</ele>
        <time>2022-06-06T09:55:05Z</time>
      </trkpt>
      <trkpt lat="44.90459" lon="3.9333">
        <ele>995.58</ele>
        <time>2022-06-06T09:55:09Z</time>
      </trkpt>
      <trkpt lat="44.90457" lon="3.9333">
        <ele>996.06</ele>
        <time>2022-06-06T09:55:10Z</time>
      </trkpt>
      <trkpt lat="44.90416" lon="3.9332">
        <ele>997.99</ele>
        <time>2022-06-06T09:55:25Z</time>
      </trkpt>
      <trkpt lat="44.90392" lon="3.933">
        <ele>1000.39</ele>
        <time>2022-06-06T09:55:43Z</time>
      </trkpt>
      <trkpt lat="44.90372" lon="3.93278">
        <ele>1004.23</ele>
        <time>2022-06-06T09:55:58Z</time>
      </trkpt>
      <trkpt lat="44.90353" lon="3.93249">
        <ele>1007.6</ele>
        <time>2022-06-06T09:56:14Z</time>
      </trkpt>
      <trkpt lat="44.9033" lon="3.93215">
        <ele>1006.64</ele>
        <time>2022-06-06T09:56:24Z</time>
      </trkpt>
      <trkpt lat="44.90273" lon="3.93166">
        <ele>1000.39</ele>
        <time>2022-06-06T09:56:38Z</time>
      </trkpt>
      <trkpt lat="44.90249" lon="3.93129">
        <ele>998.95</ele>
        <time>2022-06-06T09:56:50Z</time>
      </trkpt>
      <trkpt lat="44.90222" lon="3.93097">
        <ele>999.43</ele>
        <time>2022-06-06T09:57:05Z</time>
      </trkpt>
      <trkpt lat="44.90198" lon="3.93069">
        <ele>998.47</ele>
        <time>2022-06-06T09:57:17Z</time>
      </trkpt>
      <trkpt lat="44.90179" lon="3.93047">
        <ele>997.99</ele>
        <time>2022-06-06T09:57:30Z</time>
      </trkpt>
      <trkpt lat="44.90158" lon="3.93028">
        <ele>997.51</ele>
        <time>2022-06-06T09:57:44Z</time>
      </trkpt>
      <trkpt lat="44.90136" lon="3.93008">
        <ele>996.54</ele>
        <time>2022-06-06T09:57:59Z</time>
      </trkpt>
      <trkpt lat="44.90114" lon="3.92978">
        <ele>995.1</ele>
        <time>2022-06-06T09:58:13Z</time>
      </trkpt>
      <trkpt lat="44.90095" lon="3.92955">
        <ele>992.7</ele>
        <time>2022-06-06T09:58:26Z</time>
      </trkpt>
      <trkpt lat="44.90066" lon="3.92918">
        <ele>989.33</ele>
        <time>2022-06-06T09:58:44Z</time>
      </trkpt>
      <trkpt lat="44.90047" lon="3.92892">
        <ele>988.37</ele>
        <time>2022-06-06T09:58:58Z</time>
      </trkpt>
      <trkpt lat="44.90027" lon="3.92868">
        <ele>986.93</ele>
        <time>2022-06-06T09:59:12Z</time>
      </trkpt>
      <trkpt lat="44.90007" lon="3.92847">
        <ele>985.01</ele>
        <time>2022-06-06T09:59:28Z</time>
      </trkpt>
      <trkpt lat="44.89987" lon="3.92828">
        <ele>984.53</ele>
        <time>2022-06-06T09:59:44Z</time>
      </trkpt>
      <trkpt lat="44.89972" lon="3.92809">
        <ele>982.12</ele>
        <time>2022-06-06T10:00:00Z</time>
      </trkpt>
      <trkpt lat="44.89953" lon="3.92803">
        <ele>979.24</ele>
        <time>2022-06-06T10:00:18Z</time>
      </trkpt>
      <trkpt lat="44.8993" lon="3.92804">
        <ele>975.39</ele>
        <time>2022-06-06T10:00:36Z</time>
      </trkpt>
      <trkpt lat="44.89909" lon="3.92801">
        <ele>972.03</ele>
        <time>2022-06-06T10:00:53Z</time>
      </trkpt>
      <trkpt lat="44.8989" lon="3.92796">
        <ele>969.15</ele>
        <time>2022-06-06T10:01:08Z</time>
      </trkpt>
      <trkpt lat="44.89865" lon="3.92791">
        <ele>966.74</ele>
        <time>2022-06-06T10:01:25Z</time>
      </trkpt>
      <trkpt lat="44.89842" lon="3.92785">
        <ele>964.34</ele>
        <time>2022-06-06T10:01:43Z</time>
      </trkpt>
      <trkpt lat="44.89829" lon="3.92779">
        <ele>962.42</ele>
        <time>2022-06-06T10:01:56Z</time>
      </trkpt>
      <trkpt lat="44.89827" lon="3.92779">
        <ele>961.94</ele>
        <time>2022-06-06T10:01:57Z</time>
      </trkpt>
      <trkpt lat="44.89825" lon="3.92778">
        <ele>961.94</ele>
        <time>2022-06-06T10:01:58Z</time>
      </trkpt>
      <trkpt lat="44.89803" lon="3.92772">
        <ele>960.49</ele>
        <time>2022-06-06T10:02:12Z</time>
      </trkpt>
      <trkpt lat="44.8978" lon="3.92772">
        <ele>958.09</ele>
        <time>2022-06-06T10:02:27Z</time>
      </trkpt>
      <trkpt lat="44.89755" lon="3.92758">
        <ele>954.25</ele>
        <time>2022-06-06T10:02:44Z</time>
      </trkpt>
      <trkpt lat="44.89732" lon="3.92737">
        <ele>949.92</ele>
        <time>2022-06-06T10:03:00Z</time>
      </trkpt>
      <trkpt lat="44.89724" lon="3.92727">
        <ele>947.52</ele>
        <time>2022-06-06T10:03:07Z</time>
      </trkpt>
      <trkpt lat="44.89729" lon="3.927">
        <ele>944.15</ele>
        <time>2022-06-06T10:03:17Z</time>
      </trkpt>
      <trkpt lat="44.89749" lon="3.92673">
        <ele>939.83</ele>
        <time>2022-06-06T10:03:32Z</time>
      </trkpt>
      <trkpt lat="44.89768" lon="3.92648">
        <ele>938.38</ele>
        <time>2022-06-06T10:03:48Z</time>
      </trkpt>
      <trkpt lat="44.89781" lon="3.92622">
        <ele>936.46</ele>
        <time>2022-06-06T10:04:02Z</time>
      </trkpt>
      <trkpt lat="44.89793" lon="3.92585">
        <ele>936.46</ele>
        <time>2022-06-06T10:04:18Z</time>
      </trkpt>
      <trkpt lat="44.89803" lon="3.92554">
        <ele>935.98</ele>
        <time>2022-06-06T10:04:32Z</time>
      </trkpt>
      <trkpt lat="44.89815" lon="3.92522">
        <ele>933.58</ele>
        <time>2022-06-06T10:04:50Z</time>
      </trkpt>
      <trkpt lat="44.89825" lon="3.9249">
        <ele>931.17</ele>
        <time>2022-06-06T10:05:05Z</time>
      </trkpt>
      <trkpt lat="44.89833" lon="3.92461">
        <ele>933.58</ele>
        <time>2022-06-06T10:05:21Z</time>
      </trkpt>
      <trkpt lat="44.89845" lon="3.92429">
        <ele>935.98</ele>
        <time>2022-06-06T10:05:39Z</time>
      </trkpt>
      <trkpt lat="44.89854" lon="3.92408">
        <ele>940.31</ele>
        <time>2022-06-06T10:05:54Z</time>
      </trkpt>
      <trkpt lat="44.89854" lon="3.92405">
        <ele>943.19</ele>
        <time>2022-06-06T10:06:10Z</time>
      </trkpt>
      <trkpt lat="44.89857" lon="3.92405">
        <ele>944.15</ele>
        <time>2022-06-06T10:06:23Z</time>
      </trkpt>
      <trkpt lat="44.89857" lon="3.92401">
        <ele>942.23</ele>
        <time>2022-06-06T10:06:45Z</time>
      </trkpt>
      <trkpt lat="44.89857" lon="3.92403">
        <ele>941.27</ele>
        <time>2022-06-06T10:07:01Z</time>
      </trkpt>
      <trkpt lat="44.89854" lon="3.92407">
        <ele>940.79</ele>
        <time>2022-06-06T10:07:13Z</time>
      </trkpt>
      <trkpt lat="44.89856" lon="3.92407">
        <ele>942.23</ele>
        <time>2022-06-06T10:07:30Z</time>
      </trkpt>
      <trkpt lat="44.89855" lon="3.92408">
        <ele>943.67</ele>
        <time>2022-06-06T10:07:44Z</time>
      </trkpt>
      <trkpt lat="44.89856" lon="3.9241">
        <ele>943.19</ele>
        <time>2022-06-06T10:08:05Z</time>
      </trkpt>
      <trkpt lat="44.89855" lon="3.92409">
        <ele>942.23</ele>
        <time>2022-06-06T10:08:19Z</time>
      </trkpt>
      <trkpt lat="44.89854" lon="3.92407">
        <ele>941.27</ele>
        <time>2022-06-06T10:08:33Z</time>
      </trkpt>
      <trkpt lat="44.89853" lon="3.92405">
        <ele>940.31</ele>
        <time>2022-06-06T10:08:49Z</time>
      </trkpt>
      <trkpt lat="44.89854" lon="3.92409">
        <ele>939.83</ele>
        <time>2022-06-06T10:09:00Z</time>
      </trkpt>
      <trkpt lat="44.89852" lon="3.92406">
        <ele>937.9</ele>
        <time>2022-06-06T10:09:12Z</time>
      </trkpt>
      <trkpt lat="44.89852" lon="3.92406">
        <ele>937.42</ele>
        <time>2022-06-06T10:09:16Z</time>
      </trkpt>
      <trkpt lat="44.89855" lon="3.92408">
        <ele>938.38</ele>
        <time>2022-06-06T10:09:28Z</time>
      </trkpt>
      <trkpt lat="44.89851" lon="3.92408">
        <ele>937.9</ele>
        <time>2022-06-06T10:09:43Z</time>
      </trkpt>
      <trkpt lat="44.89848" lon="3.92408">
        <ele>942.23</ele>
        <time>2022-06-06T10:09:56Z</time>
      </trkpt>
      <trkpt lat="44.89851" lon="3.92404">
        <ele>943.67</ele>
        <time>2022-06-06T10:10:15Z</time>
      </trkpt>
      <trkpt lat="44.89853" lon="3.92405">
        <ele>942.71</ele>
        <time>2022-06-06T10:10:32Z</time>
      </trkpt>
      <trkpt lat="44.89855" lon="3.92409">
        <ele>941.75</ele>
        <time>2022-06-06T10:10:45Z</time>
      </trkpt>
      <trkpt lat="44.89854" lon="3.92409">
        <ele>941.75</ele>
        <time>2022-06-06T10:10:56Z</time>
      </trkpt>
      <trkpt lat="44.89853" lon="3.92405">
        <ele>943.67</ele>
        <time>2022-06-06T10:11:09Z</time>
      </trkpt>
    </trkseg>
  </trk>
</gpx>